Warning: Javascript must be enabled to use all the features on this page!


Page Loading - Please Wait...

Click to hideNews Bulletins

Streamflow Measurements for the Nation


USGS 11447850 STEAMBOAT SLOUGH NR WALNUT GROVE CA


Sacramento County, California
Hydrologic Unit Code 18020163
Latitude  38°17'05", Longitude 121°35'12" NAD83
Gage datum 0 feet above NAVD88
Output formats
HTML table with channel data
HTML table without channel data
Tab-separated data with channel data
Tab-separated data without channel data
Graph of data
Reselect output format
Meas.
Number
  Date       Time Time
Datum
Measurement
Used?
  Who Measuring
Agency
Stream
flow
(ft3/s)
Gage
Height
(ft)
GH
Change
(ft)
Meas.
Duration
(hr)
Meas.
Rated
  Control Flow
Adjust.
Code
 
14962020-10-06 09:38:51PSTYesTV/MIUSGS21104.88 Poor NONE
14952020-10-06 09:34:20PSTYesTV/MIUSGS19604.90 Poor NONE
14942020-10-06 09:29:48PSTYesTV/MIUSGS18604.92 Poor NONE
14932020-10-06 09:25:38PSTYesTV/MIUSGS16704.94 Poor NONE
14922020-10-06 09:21:29PSTYesTV/MIUSGS15504.96 Poor NONE
14912020-10-06 09:17:27PSTYesTV/MIUSGS14004.97 Poor NONE
14902020-08-07 11:57:01PSTYesTV/MIUSGS45204.35 Poor NONE
14892020-08-07 11:52:04PSTYesTV/MIUSGS43604.37 Poor NONE
14882020-08-07 11:48:31PSTYesTV/MIUSGS44304.39 Poor NONE
14872020-08-07 11:42:21PSTYesTV/MIUSGS44504.43 Poor NONE
14862020-08-07 11:38:48PSTYesTV/MIUSGS44704.45 Poor NONE
14852020-08-07 11:34:46PSTYesTV/MIUSGS44604.47 Poor NONE
14842020-05-13 12:58:42PSTYesAC/NVBUSGS42004.68 Poor NONE
14832020-05-13 12:55:23PSTYesAC/NVBUSGS41904.70 Poor NONE
14822020-05-13 12:52:17PSTYesAC/NVBUSGS42104.72 Poor NONE
14812020-05-13 12:49:15PSTYesAC/NVBUSGS41804.74 Poor NONE
14802020-05-13 12:45:57PSTYesAC/NVBUSGS40904.75 Poor NONE
14792020-05-13 12:42:51PSTYesAC/NVBUSGS42504.78 Poor NONE
14782020-02-25 10:07:21PSTYesTV/MI/EDUSGS37204.26 Poor NONE
14772020-02-25 10:03:25PSTYesTV/MI/EDUSGS36104.28 Poor NONE
14762020-02-25 09:59:36PSTYesTV/MI/EDUSGS36204.29 Poor NONE
14752020-02-25 09:55:35PSTYesTV/MI/EDUSGS36004.31 Unspecified NONE
14742020-02-25 09:51:32PSTYesTV/MI/EDUSGS35804.33 Poor NONE
14732020-02-25 09:47:35PSTYesTV/MI/EDUSGS36704.35 Poor NONE
14722019-12-19 10:12:02PSTYesMI/HRUSGS11805.74 Poor NONE
14712019-12-19 10:05:46PSTYesMI/HRUSGS12305.70 Poor NONE
14702019-12-19 09:59:52PSTYesMI/HRUSGS12005.66 Poor NONE
14692019-12-19 09:54:36PSTYesMI/HRUSGS13005.63 Poor NONE
14682019-12-19 09:49:11PSTYesMI/HRUSGS12305.58 Poor NONE
14672019-12-19 09:43:32PSTYesMI/HRUSGS13005.54 Poor NONE
14662019-10-23 11:13:35PSTYesMI, ACUSGS-35.54.65 Poor NONE
14652019-10-23 11:08:14PSTYesMI, ACUSGS1064.60 Poor NONE
14642019-10-23 11:03:51PSTYesMI, ACUSGS1544.57 Poor NONE
14632019-10-23 10:58:35PSTYesMI, ACUSGS1624.53 Poor NONE
14622019-10-23 10:53:49PSTYesMI, ACUSGS1634.49 Poor NONE
14612019-10-23 10:48:20PSTYesMI, ACUSGS3294.44 Poor NONE
14602019-08-15 08:08:11PSTYesMI, HRUSGS55805.61 Unspecified NONE
14592019-08-15 08:04:28PSTYesMI, HRUSGS54005.63 Unspecified NONE
14582019-08-15 08:00:25PSTYesMI, HRUSGS53605.65 Unspecified NONE
14572019-08-15 07:56:24PSTYesMI, HRUSGS53605.67 Unspecified NONE
14562019-08-15 07:52:46PSTYesMI, HRUSGS53605.70 Unspecified NONE
14552019-08-15 07:49:11PSTYesMI, HRUSGS53105.72 Unspecified NONE
14542019-06-11 11:18:46PSTYesMI, HRUSGS8110 7.57 Unspecified NONE
14532019-06-11 11:15:24PSTYesMI, HRUSGS8240 7.56 Unspecified NONE
14522019-06-11 11:11:49PSTYesMI, HRUSGS7980 7.55 Unspecified NONE
14512019-06-11 11:08:18PSTYesMI, HRUSGS7930 7.55 Unspecified NONE
14502019-06-11 11:05:04PSTYesMI, HRUSGS80407.547.54 Unspecified NONE
14492019-06-11 10:59:24PSTYesMI, HRUSGS80207.53 Unspecified NONE
14482019-04-15 09:48:03PSTYesMI/ZHUSGS1510011.08 Unspecified NONE
14472019-04-15 09:44:34PSTYesMI/ZHUSGS1500011.08 Unspecified NONE
14462019-04-15 09:41:04PSTYesMI/ZHUSGS1530011.08 Unspecified NONE
14452019-04-15 09:37:52PSTYesMI/ZHUSGS1510011.08 Unspecified NONE
14442019-04-15 09:34:46PSTYesMI/ZHUSGS1530011.08 Unspecified NONE
14432019-04-15 09:31:51PSTYesMI/ZHUSGS1480011.08 Unspecified NONE
14422019-03-19 14:11:27PSTYesJH/ACUSGS1320010.83 Unspecified NONE
14412019-03-19 14:07:22PSTYesJH/ACUSGS1330010.82 Unspecified NONE
14402019-03-19 14:04PSTYesJH/ACUSGS1300010.82 Unspecified NONE
14392019-03-19 14:00:12PSTYesJH/ACUSGS1280010.80 Unspecified NONE
14382019-03-19 13:55:51PSTYesJH/ACUSGS1330010.79 Unspecified NONE
14372019-03-19 13:52:18PSTYesJH/ACUSGS1300010.78 Unspecified NONE
14362019-02-19 10:11:25PSTYesMI/TDUSGS1590011.68 Unspecified NONE
14352019-02-19 10:08:10PSTYesMI/TDUSGS1540011.68 Unspecified NONE
14342019-02-19 10:04:39PSTYesMI/TDUSGS1630011.69 Unspecified NONE
14332019-02-19 09:59:54PSTYesMI/TDUSGS1540011.70 Unspecified NONE
14322019-02-19 09:55:41PSTYesMI/TDUSGS1580011.71 Unspecified NONE
14312019-02-19 09:51:18PSTYesMI/TDUSGS1560011.71 Unspecified NONE
14302019-02-05 12:33:45PSTYesMI, TVUSGS94907.82 Good NONE
14292019-02-05 12:29:19PSTYesMI, TVUSGS96707.81 Good NONE
14282019-02-05 12:25:02PSTYesMI, TVUSGS94507.81 Good NONE
14272019-02-05 12:20:52PSTYesMI, TVUSGS98707.81 Good NONE
14262019-02-05 12:16:30PSTYesMI, TVUSGS95507.81 Good NONE
14252019-02-05 12:12:14PSTYesMI, TVUSGS98207.81 Good NONE
14242018-12-03 10:22:01PSTYesMI, JHUSGS22704.60 Good NONE
14232018-12-03 10:19:45PSTYesMI, JHUSGS22604.58 Good NONE
14222018-12-03 10:17:22PSTYesMI, JHUSGS23504.55 Good NONE
14212018-12-03 10:15:01PSTYesMI, JHUSGS24104.53 Good NONE
14202018-12-03 10:12:41PSTYesMI, JHUSGS25204.52 Good NONE
14192018-12-03 10:10:23PSTYesMI, JHUSGS25604.49 Good NONE
14182018-12-03 10:08:13PSTYesMI, JHUSGS25904.47 Good NONE
14172018-12-03 10:05:55PSTYesMI, JHUSGS25604.46 Good NONE
14162018-10-01 08:54:06PSTYesMI, ACUSGS-4305.27 Fair NONE
14152018-10-01 08:50:17PSTYesMI, ACUSGS-4585.25 Good NONE
14142018-10-01 08:45:32PSTYesMI, ACUSGS-4615.23 Good NONE
14132018-10-01 08:38:42PSTYesMI, ACUSGS-4195.19 Good NONE
14122018-10-01 08:35:02PSTYesMI, ACUSGS-4735.17 Good NONE
14112018-10-01 08:32:03PSTYesMI, ACUSGS-334501547.00 Fair NONE
14102018-08-14 11:26:17PSTYesMI/HRUSGS53805.24 Good NONE
14092018-08-14 11:22:29PSTYesMI/HRUSGS53605.26 Good NONE
14082018-08-14 11:18:47PSTYesMI/HRUSGS53705.28 Good NONE
14072018-08-14 11:15:22PSTYesMI/HRUSGS53705.30 Good NONE
14062018-08-14 11:11:13PSTYesMI/HRUSGS53505.33 Good NONE
14052018-08-14 11:04:48PSTYesMI/HRUSGS53105.37 Good NONE
14042018-06-25 09:59:30PSTYesMI, JHUSGS52304.59 Good NONE
14032018-06-25 09:57PSTYesMI, JHUSGS51904.61 Good NONE
14022018-06-25 09:55PSTYesMI, JHUSGS50904.62 Good NONE
14012018-06-25 09:53PSTYesMI, JHUSGS52304.63 Good NONE
14002018-06-25 09:51PSTYesMI, JHUSGS52204.64 Good NONE
13992018-06-25 09:48PSTYesMI, JHUSGS51704.65 Good NONE
13982018-02-14 11:15:07PSTYesTV/RJUSGS25704.35 Unspecified NONE
13972018-02-14 11:10:53PSTYesTV/RJUSGS27404.33 Unspecified NONE
13962018-02-14 11:05:56PSTYesTV/RJUSGS27904.31 Unspecified NONE
13952018-02-14 11:00:46PSTYesTV/RJUSGS28504.30 Unspecified NONE
13942018-02-14 10:56:05PSTYesTV/RJUSGS29504.28 Unspecified NONE
13932018-02-14 10:51:49PSTYesTV/RJUSGS29604.27 Unspecified NONE
13922017-12-05 11:32:38PSTYesBF, NSUSGS38804.37 Unspecified NONE
13912017-12-05 11:27:50PSTYesBF, NSUSGS37904.39 Unspecified NONE
13902017-12-05 11:22:51PSTYesBF, NSUSGS37804.42 Unspecified NONE
13892017-12-05 11:17:53PSTYesBF, NSUSGS37904.42 Unspecified NONE
13882017-12-05 11:12:54PSTYesBF, NSUSGS37904.44 Unspecified NONE
13872017-12-05 11:07:55PSTYesBF, NSUSGS38004.47 Unspecified NONE
13862017-09-21 09:48:44PSTYesBF, JDUSGS56905.56 Unspecified NONE
13852017-09-21 09:45:25PSTYesBF, JDUSGS55605.57 Unspecified NONE
13842017-09-21 09:41:51PSTYesBF, JDUSGS57205.59 Unspecified NONE
13832017-09-21 09:27:51PSTYesBF, JDUSGS57105.66 Unspecified NONE
13822017-09-21 09:23:59PSTYesBF, JDUSGS55705.69 Unspecified NONE
13812017-09-21 09:20:15PSTYesBF, JDUSGS55805.71 Unspecified NONE
13802017-06-27 12:06:07PSTYesBF, RJUSGS51205.23 Good NONE
13792017-06-27 12:02:13PSTYesBF, RJUSGS51305.26 Good NONE
13782017-06-27 11:58:37PSTYesBF, RJUSGS52205.28 Good NONE
13772017-06-27 11:55:18PSTYesBF, RJUSGS52605.30 Good NONE
13762017-06-27 11:52:03PSTYesBF, RJUSGS51705.33 Good NONE
13752017-06-27 11:48:42PSTYesBF, RJUSGS52905.35 Good NONE
13742017-05-11 10:17:23PSTYesBF, CHUSGS94007.51 Good NONE
13732017-05-11 10:13:05PSTYesBF, CHUSGS95807.52 Good NONE
13722017-05-11 10:08:57PSTYesBF, CHUSGS91907.53 Good NONE
13712017-05-11 10:04:46PSTYesBF, CHUSGS94207.55 Good NONE
13702017-05-11 10:01:25PSTYesBF, CHUSGS88807.56 Good NONE
13692017-05-11 09:58:26PSTYesBF, CHUSGS90307.56 Good NONE
13682017-02-08 11:55:06PSTYesCV, RJUSGS1970014.50 Fair NONE
13672017-02-08 11:50:23PSTYesCV, RJUSGS1990014.53 Fair NONE
13662017-02-08 11:45:48PSTYesCV, RJUSGS1990014.50 Fair NONE
13652017-02-08 11:41:05PSTYesCV, RJUSGS1950014.51 Fair NONE
13642017-02-08 11:36:55PSTYesCV, RJUSGS2020014.48 Fair NONE
13632017-02-08 11:32:44PSTYesCV, RJUSGS1980014.48 Fair NONE
13622016-12-07 13:33:35PSTYesRPJ,BTGUSGS31404.91 Poor NONE
13612016-12-07 13:27:24PSTYesRPJ,BTGUSGS31004.95 Poor NONE
13602016-12-07 13:20:55PSTYesRPJ,BTGUSGS30604.98 Poor NONE
13592016-12-07 13:15:18PSTYesRPJ,BTGUSGS29005.01 Poor NONE
13582016-12-07 13:09:38PSTYesRPJ,BTGUSGS29305.04 Poor NONE
13572016-12-07 13:03:34PSTYesRPJ,BTGUSGS28605.08 Poor NONE
13562016-09-22 10:35PSTYesTV, CHUSGS19105.66 Unspecified NONE
13552016-09-22 10:29:30PSTYesTV, CHUSGS17205.66 Unspecified NONE
13542016-09-22 10:24:30PSTYesTV, CHUSGS15305.67 Unspecified NONE
13532016-09-22 10:19PSTYesTV, CHUSGS13405.68 Unspecified NONE
13522016-09-22 10:14PSTYesTV, CHUSGS11805.69 Unspecified NONE
13512016-09-22 10:09:30PSTYesTV, CHUSGS10405.70 Unspecified NONE
13502016-03-11 15:38:26PSTYesTM BS FUSGS128009.99 Fair NONE
13492016-03-11 15:33:46PSTYesTM BS FUSGS129009.98 Fair NONE
13482016-03-11 15:28:45PSTYesTM BS FUSGS127009.96 Fair NONE
13472016-03-11 15:23:17PSTYesTM BS FUSGS129009.94 Fair NONE
13462016-03-11 15:17:04PSTYesTM BS FUSGS121009.92 Fair NONE
13452016-03-11 15:11:45PSTYesTM BS FUSGS131009.91 Fair NONE
13442016-03-09 11:54:48PSTYesCH, BFUSGS128009.26 GoodDebrisModerateNONE
13432016-03-09 11:50:26PSTYesCH, BFUSGS122009.27 GoodDebrisModerateNONE
13422016-03-09 11:46:15PSTYesCH, BFUSGS124009.27 GoodDebrisModerateNONE
13412016-03-09 11:42:49PSTYesCH, BFUSGS121009.27 GoodDebrisModerateNONE
13402016-03-09 11:39:42PSTYesCH, BFUSGS126009.28 GoodDebrisModerateNONE
13392016-03-09 11:36:48PSTYesCH, BFUSGS121009.28 GoodDebrisModerateNONE
13382016-02-26 10:58:42PSTYesTM, CHUSGS48105.06 Good NONE
13372016-02-26 10:53:17PSTYesTM, CHUSGS47005.08 Good NONE
13362016-02-26 10:48:23PSTYesTM, CHUSGS47305.11 Good NONE
13352016-02-26 10:43:55PSTYesTM, CHUSGS47505.13 Good NONE
13342016-02-26 10:39:20PSTYesTM, CHUSGS47805.16 Good NONE
13332016-02-26 10:34:48PSTYesTM, CHUSGS45305.18 Good NONE
13322016-02-26 10:30:40PSTYesTM, CHUSGS46505.21 Good NONE
13312016-02-26 10:26:35PSTYesTM, CHUSGS46005.23 Good NONE
13302015-09-14 14:02PSTYesCH/ADUSGS-1460 UnspecifiedClearNONE
13292015-09-14 13:56PSTYesCH/ADUSGS-1180 UnspecifiedClearNONE
13282015-09-14 13:52PSTYesCH/ADUSGS-900 UnspecifiedClearNONE
13272015-09-14 13:48PSTYesCH/ADUSGS-585 UnspecifiedClearNONE
13262015-09-14 13:43PSTYesCH/ADUSGS-248 UnspecifiedClearNONE
13252015-09-14 13:39PSTYesCH/ADUSGS-59.2 UnspecifiedClearNONE
13242015-09-14 13:34PSTYesCH/ADUSGS233 UnspecifiedClearNONE
13232015-09-14 13:30PSTYesCH/ADUSGS494 UnspecifiedClearNONE
13222015-09-14 13:25PSTYesCH/ADUSGS732 UnspecifiedClearNONE
13212015-09-14 13:18PSTYesCH/ADUSGS1080 UnspecifiedClearNONE
13202015-09-14 13:14PSTYesCH/ADUSGS1300 UnspecifiedClearNONE
13192015-09-14 13:08PSTYesCH/ADUSGS1600 UnspecifiedClearNONE
13182015-09-14 13:02PSTYesCH/ADUSGS1940 UnspecifiedClearNONE
13172015-09-14 12:54PSTYesCH/ADUSGS2420 UnspecifiedClearNONE
13162015-09-14 12:49PSTYesCH/ADUSGS2680 UnspecifiedClearNONE
13152015-09-14 12:44PSTYesCH/ADUSGS2890 UnspecifiedClearNONE
13142015-09-14 10:57PSTYesCH/ADUSGS43804.63 UnspecifiedClearNONE
13132015-09-14 10:51PSTYesCH/ADUSGS43504.66 UnspecifiedClearNONE
13122015-09-14 10:46PSTYesCH/ADUSGS43804.69 UnspecifiedClearNONE
13112015-09-14 10:41PSTYesCH/ADUSGS43004.73 UnspecifiedClearNONE
13102015-09-14 10:36PSTYesCH/ADUSGS43604.75 UnspecifiedClearNONE
13092015-09-14 10:32PSTYesCH/ADUSGS43304.78 UnspecifiedClearNONE
13082015-08-18 13:58PSTYesTV/ADUSGS3210 UnspecifiedClearNONE
13072015-08-18 13:52PSTYesTV/ADUSGS3410 UnspecifiedClearNONE
13062015-08-18 13:47PSTYesTV/ADUSGS3350 UnspecifiedClearNONE
13052015-08-18 13:43PSTYesTV/ADUSGS3470 UnspecifiedClearNONE
13042015-08-18 13:39PSTYesTV/ADUSGS3600 UnspecifiedClearNONE
13032015-08-18 13:29PSTYesTV/ADUSGS3570 UnspecifiedClearNONE
13022015-07-08 10:08PSTYesAD/CEUSGS-11605.75 UnspecifiedUnspecifedNONE
13012015-07-08 10:04PSTYesAD/CEUSGS-12805.75 UnspecifiedUnspecifedNONE
13002015-07-08 09:59PSTYesAD/CEUSGS-14905.74 UnspecifiedUnspecifedNONE
12992015-07-08 09:56PSTYesAD/CEUSGS-15605.74 UnspecifiedUnspecifedNONE
12982015-07-08 08:00PSTYesAD/CEUSGS-23805.35 UnspecifiedUnspecifedNONE
12972015-07-08 07:56PSTYesAD/CEUSGS-22505.33 UnspecifiedUnspecifedNONE
12962015-07-08 07:51PSTYesAD/CEUSGS-21905.29 UnspecifiedUnspecifedNONE
12952015-07-08 07:47PSTYesAD/CEUSGS-22205.27 UnspecifiedUnspecifedNONE
12942015-05-13 14:15PSTYesAD/BSUSGS21505.05 UnspecifiedUnspecifedNONE
12932015-05-13 14:10PSTYesAD/BSUSGS20805.08 UnspecifiedUnspecifedNONE
12922015-05-13 14:06PSTYesAD/BSUSGS19905.11 UnspecifiedUnspecifedNONE
12912015-05-13 14:01PSTYesAD/BSUSGS16905.15 UnspecifiedUnspecifedNONE
12902015-05-13 13:56PSTYesAD/BSUSGS14905.17 UnspecifiedUnspecifedNONE
12892015-05-13 13:52PSTYesAD/BSUSGS12905.20 UnspecifiedUnspecifedNONE
12882015-03-19 15:23PSTYesAD/NDUSGS-27105.52 UnspecifiedUnspecifedNONE
12872015-03-19 15:18PSTYesAD/NDUSGS-27105.49 UnspecifiedUnspecifedNONE
12862015-03-19 15:12PSTYesAD/NDUSGS-26905.45 UnspecifiedUnspecifedNONE
12852015-03-19 15:05PSTYesAD/NDUSGS-27505.41 UnspecifiedUnspecifedNONE
12842015-03-19 14:58PSTYesAD/NDUSGS-27805.38 UnspecifiedUnspecifedNONE
12832015-03-19 14:52PSTYesAD/NDUSGS-27605.34 UnspecifiedUnspecifedNONE
12822015-02-11 11:55PSTYesNDUSGS7610 Unspecified NONE
12812015-02-11 11:39PSTYesNDUSGS7560 Unspecified NONE
12802015-02-11 11:25PSTYesNDUSGS7290 Unspecified NONE
12792015-02-11 11:12PSTYesNDUSGS7150 Unspecified NONE
12782015-02-11 11:03PSTYesNDUSGS7290 Unspecified NONE
12772015-02-11 10:54PSTYesNDUSGS7130 Unspecified NONE
12762014-12-15 16:12PSTYesDA/ADUSGS10800 Unspecified NONE
12752014-12-15 16:06PSTYesDA/ADUSGS10800 Unspecified NONE
12742014-12-15 16:00PSTYesDA/ADUSGS11400 Unspecified NONE
12732014-12-15 15:52PSTYesDA/ADUSGS11200 Unspecified NONE
12722014-12-15 15:46PSTYesDA/ADUSGS10800 Unspecified NONE
12712014-12-15 15:39PSTYesDA/ADUSGS10800 Unspecified NONE
12702014-06-26 11:49PSTYesYESUSGS4360 Unspecified NONE
12692014-06-26 11:42PSTYesYESUSGS4460 Unspecified NONE
12682014-06-26 11:36PSTYesYESUSGS4410 Unspecified NONE
12672014-06-26 11:31PSTYesYESUSGS4470 Unspecified NONE
12662014-06-26 11:26PSTYesYESUSGS4440 Unspecified NONE
12652014-06-26 11:17PSTYesYESUSGS4390 Unspecified NONE
12642014-01-28 15:48PSTYesYESUSGS1850 Unspecified NONE
12632014-01-28 15:44PSTYesYESUSGS1640 Unspecified NONE
12622014-01-28 15:41PSTYesYESUSGS1410 Unspecified NONE
12612014-01-28 15:37PSTYesYESUSGS1200 Unspecified NONE
12602014-01-28 15:32PSTYesYESUSGS1030 Unspecified NONE
12592014-01-28 15:27PSTYesYESUSGS608 Unspecified NONE
12582014-01-28 15:24PSTYesYESUSGS289 Unspecified NONE
12572014-01-28 15:19PSTYesYESUSGS-97.7 Unspecified NONE
12562014-01-28 12:05PSTYesYESUSGS-3310 Unspecified NONE
12552014-01-28 11:59PSTYesYESUSGS-3230 Unspecified NONE
12542014-01-28 11:44PSTYesYESUSGS-3120 Unspecified NONE
12532014-01-28 11:35PSTYesYESUSGS-3010 Unspecified NONE
12522014-01-28 11:29PSTYesYESUSGS-2980 Unspecified NONE
12512014-01-28 11:22PSTYesYESUSGS-2910 Unspecified NONE
12502014-01-28 11:17PSTYesYESUSGS-2880 Unspecified NONE
12492014-01-28 11:04PSTYesYESUSGS-2590 Unspecified NONE
12482014-01-28 10:49PSTYesYESUSGS-2510 Unspecified NONE
12472014-01-28 10:41PSTYesYESUSGS-2390 Unspecified NONE
12462011-12-22 14:04PSTYesYESUSGS36.0 Unspecified NONE
12452011-12-22 13:58PSTYesYESUSGS-185 Unspecified NONE
12442011-12-22 13:52PSTYesYESUSGS-278 Unspecified NONE
12432011-12-22 13:48PSTYesYESUSGS-376 Unspecified NONE
12422011-12-22 13:43PSTYesYESUSGS-399 Unspecified NONE
12412011-12-22 13:37PSTYesYESUSGS-488 Unspecified NONE
12402011-03-29 10:32PSTYesYESUSGS15600 Unspecified NONE
12392011-03-29 10:29PSTYesYESUSGS16500 Unspecified NONE
12382011-03-29 10:25PSTYesYESUSGS16700 Unspecified NONE
12372011-03-29 10:22PSTYesYESUSGS15400 Unspecified NONE
12362011-03-21 14:38PSTYesYESUSGS16600 Unspecified NONE
12352011-03-21 14:35PSTYesYESUSGS16700 Unspecified NONE
12342011-03-21 14:31PSTYesYESUSGS15600 Unspecified NONE
12332011-03-21 14:26PSTYesYESUSGS16200 Unspecified NONE
12322011-03-21 14:24PSTYesYESUSGS17300 Unspecified NONE
12312011-03-21 14:20PSTYesYESUSGS16300 Unspecified NONE
12302011-03-17 15:56PSTYesYESUSGS14700 Unspecified NONE
12292011-03-17 15:52PSTYesYESUSGS13900 Unspecified NONE
12282011-03-17 15:49PSTYesYESUSGS14100 Unspecified NONE
12272011-03-17 15:45PSTYesYESUSGS14000 Unspecified NONE
12262011-03-17 15:42PSTYesYESUSGS13900 Unspecified NONE
12252011-03-17 15:37PSTYesYESUSGS14100 Unspecified NONE
12242010-12-22 13:53PSTYesYESUSGS14000 Unspecified NONE
12232010-12-22 13:48PSTYesYESUSGS15200 Unspecified NONE
12222010-12-22 13:43PSTYesYESUSGS14900 Unspecified NONE
12212010-12-22 13:38PSTYesYESUSGS14700 Unspecified NONE
12202010-12-22 13:33PSTYesYESUSGS14800 Unspecified NONE
12192010-12-22 13:28PSTYesYESUSGS15700 Unspecified NONE
12182010-12-22 13:24PSTYesYESUSGS13600 Unspecified NONE
12172010-01-25 13:17PSTYesYESUSGS11400 Unspecified NONE
12162010-01-25 13:13PSTYesYESUSGS11300 Unspecified NONE
12152010-01-25 13:10PSTYesYESUSGS11500 Unspecified NONE
12142010-01-25 13:07PSTYesYESUSGS11400 Unspecified NONE
12132010-01-25 13:04PSTYesYESUSGS11200 Unspecified NONE
12122010-01-25 13:01PSTYesYESUSGS11400 Unspecified NONE
12112009-10-19 17:19PSTYesYESUSGS-1810 Unspecified NONE
12102009-10-19 17:15PSTYesYESUSGS-1940 Unspecified NONE
12092009-10-19 17:02PSTYesYESUSGS-2310 Unspecified NONE
12082009-10-19 16:57PSTYesYESUSGS-2460 Unspecified NONE
12072009-10-19 16:43PSTYesYESUSGS-2710 Unspecified NONE
12062009-10-19 16:39PSTYesYESUSGS-2800 Unspecified NONE
12052009-10-19 16:26PSTYesYESUSGS-2860 Unspecified NONE
12042009-10-19 16:20PSTYesYESUSGS-2900 Unspecified NONE
12032009-10-19 16:06PSTYesYESUSGS-3040 Unspecified NONE
12022009-10-19 16:01PSTYesYESUSGS-3060 Unspecified NONE
12012009-10-19 15:47PSTYesYESUSGS-3090 Unspecified NONE
12002009-10-19 15:44PSTYesYESUSGS-3160 Unspecified NONE
11992009-10-19 15:29PSTYesYESUSGS-3150 Unspecified NONE
11982009-10-19 15:25PSTYesYESUSGS-3120 Unspecified NONE
11972009-10-19 15:12PSTYesYESUSGS-3320 Unspecified NONE
11962009-10-19 15:08PSTYesYESUSGS-3160 Unspecified NONE
11952009-10-19 14:53PSTYesYESUSGS-3130 Unspecified NONE
11942009-10-19 14:49PSTYesYESUSGS-3050 Unspecified NONE
11932009-10-19 14:27PSTYesYESUSGS-2880 Unspecified NONE
11922009-10-19 14:24PSTYesYESUSGS-2840 Unspecified NONE
11912009-10-19 14:20PSTYesYESUSGS-2900 Unspecified NONE
11902009-10-19 14:16PSTYesYESUSGS-2830 Unspecified NONE
11892009-10-19 14:00PSTYesYESUSGS-2520 Unspecified NONE
11882009-10-19 13:56PSTYesYESUSGS-2440 Unspecified NONE
11872009-10-19 13:53PSTYesYESUSGS-2470 Unspecified NONE
11862009-10-19 13:49PSTYesYESUSGS-2410 Unspecified NONE
11852009-10-19 13:46PSTYesYESUSGS-2280 Unspecified NONE
11842009-10-19 13:43PSTYesYESUSGS-2220 Unspecified NONE
11832009-10-19 13:40PSTYesYESUSGS-2080 Unspecified NONE
11822009-10-19 13:36PSTYesYESUSGS-2020 Unspecified NONE
11812009-10-19 13:33PSTYesYESUSGS-1950 Unspecified NONE
11802009-10-19 13:30PSTYesYESUSGS-1800 Unspecified NONE
11792009-10-19 13:27PSTYesYESUSGS-1660 Unspecified NONE
11782009-10-19 13:21PSTYesYESUSGS-1500 Unspecified NONE
11772009-10-19 13:18PSTYesYESUSGS-1270 Unspecified NONE
11762009-10-19 13:15PSTYesYESUSGS-1180 Unspecified NONE
11752009-10-19 13:12PSTYesYESUSGS-1000 Unspecified NONE
11742009-10-19 13:09PSTYesYESUSGS-874 Unspecified NONE
11732009-10-19 13:05PSTYesYESUSGS-691 Unspecified NONE
11722009-10-19 13:02PSTYesYESUSGS-492 Unspecified NONE
11712009-10-19 12:59PSTYesYESUSGS-279 Unspecified NONE
11702009-10-19 12:56PSTYesYESUSGS-161 Unspecified NONE
11692009-10-19 12:53PSTYesYESUSGS11.8 Unspecified NONE
11682009-10-19 12:50PSTYesYESUSGS166 Unspecified NONE
11672009-10-19 12:46PSTYesYESUSGS403 Unspecified NONE
11662009-10-19 12:43PSTYesYESUSGS563 Unspecified NONE
11652009-10-19 12:35PSTYesYESUSGS860 Unspecified NONE
11642009-10-19 12:31PSTYesYESUSGS979 Unspecified NONE
11632009-10-19 12:29PSTYesYESUSGS1050 Unspecified NONE
11622009-10-19 12:26PSTYesYESUSGS1110 Unspecified NONE
11612009-10-19 12:23PSTYesYESUSGS1260 Unspecified NONE
11602009-10-19 12:19PSTYesYESUSGS1330 Unspecified NONE
11592009-10-19 12:16PSTYesYESUSGS1520 Unspecified NONE
11582009-10-19 12:12PSTYesYESUSGS1680 Unspecified NONE
11572009-10-19 12:08PSTYesYESUSGS1840 Unspecified NONE
11562009-10-19 12:04PSTYesYESUSGS2030 Unspecified NONE
11552009-10-19 12:01PSTYesYESUSGS2220 Unspecified NONE
11542009-10-19 11:57PSTYesYESUSGS2390 Unspecified NONE
11532009-10-19 11:53PSTYesYESUSGS2450 Unspecified NONE
11522009-10-19 11:47PSTYesYESUSGS2600 Unspecified NONE
11512009-10-19 11:44PSTYesYESUSGS2800 Unspecified NONE
11502009-10-19 11:36PSTYesYESUSGS2940 Unspecified NONE
11492009-10-19 11:12PSTYesYESUSGS3420 Unspecified NONE
11482009-10-19 11:04PSTYesYESUSGS3500 Unspecified NONE
11472009-10-19 10:39PSTYesYESUSGS3740 Unspecified NONE
11462009-10-19 10:35PSTYesYESUSGS3770 Unspecified NONE
11452009-10-19 10:05PSTYesYESUSGS3860 Unspecified NONE
11442009-10-19 10:00PSTYesYESUSGS3820 Unspecified NONE
11432009-10-19 09:30PSTYesYESUSGS3960 Unspecified NONE
11422009-10-19 09:25PSTYesYESUSGS3890 Unspecified NONE
11412009-10-19 09:20PSTYesYESUSGS3910 Unspecified NONE
11402009-10-19 09:13PSTYesYESUSGS3810 Unspecified NONE
11392009-10-19 09:07PSTYesYESUSGS3810 Unspecified NONE
11382009-10-19 09:01PSTYesYESUSGS3760 Unspecified NONE
11372009-10-19 08:54PSTYesYESUSGS3730 Unspecified NONE
11362009-10-19 08:48PSTYesYESUSGS3610 Unspecified NONE
11352009-10-19 08:40PSTYesYESUSGS3560 Unspecified NONE
11342009-10-19 08:34PSTYesYESUSGS3590 Unspecified NONE
11332009-10-19 08:28PSTYesYESUSGS3600 Unspecified NONE
11322009-10-19 08:22PSTYesYESUSGS3490 Unspecified NONE
11312009-10-19 08:16PSTYesYESUSGS3430 Unspecified NONE
11302009-10-19 08:11PSTYesYESUSGS3370 Unspecified NONE
11292009-10-19 08:04PSTYesYESUSGS3280 Unspecified NONE
11282009-10-19 08:00PSTYesYESUSGS3150 Unspecified NONE
11272009-10-19 07:55PSTYesYESUSGS3040 Unspecified NONE
11262009-10-19 07:49PSTYesYESUSGS3010 Unspecified NONE
11252009-10-19 07:44PSTYesYESUSGS2870 Unspecified NONE
11242009-10-19 07:39PSTYesYESUSGS2850 Unspecified NONE
11232009-10-19 07:33PSTYesYESUSGS2730 Unspecified NONE
11222009-10-19 07:29PSTYesYESUSGS2620 Unspecified NONE
11212009-10-19 07:26PSTYesYESUSGS2520 Unspecified NONE
11202009-10-19 07:21PSTYesYESUSGS2430 Unspecified NONE
11192009-10-19 07:18PSTYesYESUSGS2240 Unspecified NONE
11182009-10-19 07:15PSTYesYESUSGS2150 Unspecified NONE
11172009-10-19 07:11PSTYesYESUSGS2060 Unspecified NONE
11162009-10-19 07:07PSTYesYESUSGS1920 Unspecified NONE
11152009-10-19 07:04PSTYesYESUSGS1840 Unspecified NONE
11142009-10-19 07:01PSTYesYESUSGS1610 Unspecified NONE
11132009-10-19 06:58PSTYesYESUSGS1490 Unspecified NONE
11122009-10-19 06:54PSTYesYESUSGS1290 Unspecified NONE
11112009-10-19 06:51PSTYesYESUSGS1120 Unspecified NONE
11102009-10-19 06:48PSTYesYESUSGS947 Unspecified NONE
11092009-10-19 06:45PSTYesYESUSGS750 Unspecified NONE
11082009-10-19 06:41PSTYesYESUSGS564 Unspecified NONE
11072009-10-19 06:29PSTYesYESUSGS-78.3 Unspecified NONE
11062009-10-19 06:26PSTYesYESUSGS-193 Unspecified NONE
11052009-06-24 17:05PSTYesYESUSGS-1740 Unspecified NONE
11042009-06-24 17:02PSTYesYESUSGS-1800 Unspecified NONE
11032009-06-24 16:57PSTYesYESUSGS-1670 Unspecified NONE
11022009-06-24 16:54PSTYesYESUSGS-1750 Unspecified NONE
11012009-06-24 16:50PSTYesYESUSGS-1560 Unspecified NONE
11002009-06-24 16:48PSTYesYESUSGS-1550 Unspecified NONE
10992009-06-24 16:44PSTYesYESUSGS-1420 Unspecified NONE
10982009-06-24 16:41PSTYesYESUSGS-1420 Unspecified NONE
10972009-06-24 16:37PSTYesYESUSGS-1350 Unspecified NONE
10962009-06-24 16:34PSTYesYESUSGS-1300 Unspecified NONE
10952009-06-24 16:30PSTYesYESUSGS-1150 Unspecified NONE
10942009-06-24 16:27PSTYesYESUSGS-1140 Unspecified NONE
10932009-06-24 16:23PSTYesYESUSGS-1060 Unspecified NONE
10922009-06-24 16:20PSTYesYESUSGS-967 Unspecified NONE
10912009-06-24 16:17PSTYesYESUSGS-844 Unspecified NONE
10902009-06-24 16:14PSTYesYESUSGS-821 Unspecified NONE
10892009-06-24 16:10PSTYesYESUSGS-674 Unspecified NONE
10882009-06-24 16:07PSTYesYESUSGS-562 Unspecified NONE
10872009-06-24 16:05PSTYesYESUSGS-482 Unspecified NONE
10862009-06-24 16:02PSTYesYESUSGS-396 Unspecified NONE
10852009-06-24 15:59PSTYesYESUSGS-203 Unspecified NONE
10842009-06-24 15:56PSTYesYESUSGS-164 Unspecified NONE
10832009-06-24 15:51PSTYesYESUSGS150 Unspecified NONE
10822009-06-24 15:48PSTYesYESUSGS256 Unspecified NONE
10812009-06-24 15:44PSTYesYESUSGS553 Unspecified NONE
10802009-06-24 15:41PSTYesYESUSGS534 Unspecified NONE
10792009-06-24 15:37PSTYesYESUSGS883 Unspecified NONE
10782009-06-24 15:35PSTYesYESUSGS984 Unspecified NONE
10772009-06-24 15:31PSTYesYESUSGS1120 Unspecified NONE
10762009-06-24 15:29PSTYesYESUSGS1200 Unspecified NONE
10752009-06-24 15:26PSTYesYESUSGS1500 Unspecified NONE
10742009-06-24 15:23PSTYesYESUSGS1440 Unspecified NONE
10732009-06-24 15:20PSTYesYESUSGS1670 Unspecified NONE
10722009-06-24 15:17PSTYesYESUSGS1710 Unspecified NONE
10712009-06-24 15:14PSTYesYESUSGS1850 Unspecified NONE
10702009-06-24 15:11PSTYesYESUSGS1930 Unspecified NONE
10692009-06-24 15:08PSTYesYESUSGS2120 Unspecified NONE
10682009-06-24 15:06PSTYesYESUSGS1990 Unspecified NONE
10672009-06-24 15:03PSTYesYESUSGS2300 Unspecified NONE
10662009-06-24 15:00PSTYesYESUSGS2220 Unspecified NONE
10652009-06-24 14:56PSTYesYESUSGS2430 Unspecified NONE
10642009-06-24 14:53PSTYesYESUSGS2630 Unspecified NONE
10632009-06-24 14:48PSTYesYESUSGS2670 Unspecified NONE
10622009-06-24 14:45PSTYesYESUSGS2770 Unspecified NONE
10612009-06-24 14:43PSTYesYESUSGS2920 Unspecified NONE
10602009-06-24 14:39PSTYesYESUSGS3010 Unspecified NONE
10592009-06-24 14:34PSTYesYESUSGS3220 Unspecified NONE
10582009-06-24 14:31PSTYesYESUSGS3340 Unspecified NONE
10572009-06-24 14:29PSTYesYESUSGS3430 Unspecified NONE
10562009-06-24 14:25PSTYesYESUSGS3480 Unspecified NONE
10552009-06-24 14:23PSTYesYESUSGS3800 Unspecified NONE
10542009-06-24 14:20PSTYesYESUSGS3620 Unspecified NONE
10532009-06-24 13:59PSTYesYESUSGS4220 Unspecified NONE
10522009-06-24 13:57PSTYesYESUSGS4130 Unspecified NONE
10512009-06-24 13:54PSTYesYESUSGS4170 Unspecified NONE
10502009-06-24 13:52PSTYesYESUSGS4200 Unspecified NONE
10492009-06-24 13:41PSTYesYESUSGS4450 Unspecified NONE
10482009-06-24 13:38PSTYesYESUSGS4560 Unspecified NONE
10472009-06-24 13:36PSTYesYESUSGS4600 Unspecified NONE
10462009-06-24 13:18PSTYesYESUSGS4680 Unspecified NONE
10452009-06-24 13:15PSTYesYESUSGS4410 Unspecified NONE
10442009-06-24 13:12PSTYesYESUSGS4460 Unspecified NONE
10432009-06-24 13:08PSTYesYESUSGS4470 Unspecified NONE
10422009-06-24 13:06PSTYesYESUSGS4640 Unspecified NONE
10412009-06-24 12:59PSTYesYESUSGS4610 Unspecified NONE
10402009-06-24 12:51PSTYesYESUSGS4600 Unspecified NONE
10392009-06-24 12:46PSTYesYESUSGS4600 Unspecified NONE
10382009-06-24 12:44PSTYesYESUSGS4700 Unspecified NONE
10372009-06-24 12:35PSTYesYESUSGS4650 Unspecified NONE
10362009-06-24 12:33PSTYesYESUSGS4720 Unspecified NONE
10352009-06-24 12:31PSTYesYESUSGS4640 Unspecified NONE
10342009-06-24 12:29PSTYesYESUSGS4820 Unspecified NONE
10332009-06-24 12:25PSTYesYESUSGS4880 Unspecified NONE
10322009-06-24 12:19PSTYesYESUSGS4840 Unspecified NONE
10312009-06-24 12:05PSTYesYESUSGS4730 Unspecified NONE
10302009-06-24 11:59PSTYesYESUSGS4860 Unspecified NONE
10292009-06-24 11:46PSTYesYESUSGS4850 Unspecified NONE
10282009-06-24 11:37PSTYesYESUSGS4860 Unspecified NONE
10272009-06-24 11:35PSTYesYESUSGS4950 Unspecified NONE
10262009-06-24 11:32PSTYesYESUSGS4700 Unspecified NONE
10252009-06-24 11:30PSTYesYESUSGS5060 Unspecified NONE
10242009-06-24 11:27PSTYesYESUSGS4820 Unspecified NONE
10232009-06-24 11:24PSTYesYESUSGS5000 Unspecified NONE
10222009-06-24 11:21PSTYesYESUSGS4850 Unspecified NONE
10212009-06-24 11:19PSTYesYESUSGS4980 Unspecified NONE
10202009-06-24 11:16PSTYesYESUSGS4790 Unspecified NONE
10192009-06-24 11:08PSTYesYESUSGS4970 Unspecified NONE
10182009-06-24 11:05PSTYesYESUSGS4890 Unspecified NONE
10172009-06-24 11:03PSTYesYESUSGS4970 Unspecified NONE
10162009-06-24 10:59PSTYesYESUSGS4970 Unspecified NONE
10152009-06-24 10:56PSTYesYESUSGS4950 Unspecified NONE
10142009-06-24 10:54PSTYesYESUSGS4940 Unspecified NONE
10132009-06-24 10:51PSTYesYESUSGS5020 Unspecified NONE
10122009-06-24 10:48PSTYesYESUSGS4890 Unspecified NONE
10112009-06-24 10:45PSTYesYESUSGS5030 Unspecified NONE
10102009-06-24 09:56PSTYesYESUSGS4830 Unspecified NONE
10092009-06-24 09:54PSTYesYESUSGS4810 Unspecified NONE
10082009-06-24 09:47PSTYesYESUSGS4750 Unspecified NONE
10072009-06-24 09:45PSTYesYESUSGS4940 Unspecified NONE
10062009-06-24 09:41PSTYesYESUSGS4880 Unspecified NONE
10052009-06-24 09:39PSTYesYESUSGS4950 Unspecified NONE
10042009-06-24 09:35PSTYesYESUSGS4850 Unspecified NONE
10032009-06-24 09:32PSTYesYESUSGS5050 Unspecified NONE
10022009-06-24 09:28PSTYesYESUSGS5000 Unspecified NONE
10012009-06-24 09:25PSTYesYESUSGS4980 Unspecified NONE
10002009-06-24 09:22PSTYesYESUSGS4890 Unspecified NONE
9992009-06-24 09:20PSTYesYESUSGS4820 Unspecified NONE
9982009-06-24 09:16PSTYesYESUSGS4710 Unspecified NONE
9972009-06-24 09:14PSTYesYESUSGS4940 Unspecified NONE
9962009-06-24 08:59PSTYesYESUSGS4840 Unspecified NONE
9952009-06-24 08:57PSTYesYESUSGS4760 Unspecified NONE
9942009-06-24 08:53PSTYesYESUSGS4850 Unspecified NONE
9932009-06-24 08:51PSTYesYESUSGS4850 Unspecified NONE
9922009-06-24 08:47PSTYesYESUSGS4850 Unspecified NONE
9912009-06-24 08:44PSTYesYESUSGS4790 Unspecified NONE
9902009-06-24 08:41PSTYesYESUSGS4770 Unspecified NONE
9892009-06-24 08:39PSTYesYESUSGS4880 Unspecified NONE
9882009-06-24 08:35PSTYesYESUSGS4570 Unspecified NONE
9872009-06-24 08:33PSTYesYESUSGS4870 Unspecified NONE
9862009-06-24 08:30PSTYesYESUSGS4870 Unspecified NONE
9852009-06-24 08:27PSTYesYESUSGS4770 Unspecified NONE
9842009-06-24 08:24PSTYesYESUSGS4740 Unspecified NONE
9832009-06-24 08:21PSTYesYESUSGS4700 Unspecified NONE
9822009-06-24 08:18PSTYesYESUSGS4710 Unspecified NONE
9812009-06-24 08:15PSTYesYESUSGS4670 Unspecified NONE
9802009-06-24 08:12PSTYesYESUSGS4710 Unspecified NONE
9792009-06-24 08:09PSTYesYESUSGS4940 Unspecified NONE
9782009-06-24 08:04PSTYesYESUSGS4720 Unspecified NONE
9772009-06-24 08:01PSTYesYESUSGS4730 Unspecified NONE
9762009-06-24 07:57PSTYesYESUSGS4510 Unspecified NONE
9752009-06-24 07:55PSTYesYESUSGS4560 Unspecified NONE
9742009-06-24 07:50PSTYesYESUSGS4350 Unspecified NONE
9732009-06-24 07:47PSTYesYESUSGS4480 Unspecified NONE
9722009-06-24 07:44PSTYesYESUSGS4390 Unspecified NONE
9712009-06-24 07:41PSTYesYESUSGS4370 Unspecified NONE
9702009-06-24 07:37PSTYesYESUSGS4360 Unspecified NONE
9692009-06-24 07:34PSTYesYESUSGS4270 Unspecified NONE
9682009-06-24 07:29PSTYesYESUSGS4140 Unspecified NONE
9672009-06-24 07:27PSTYesYESUSGS4130 Unspecified NONE
9662009-06-24 07:22PSTYesYESUSGS4020 Unspecified NONE
9652009-06-24 07:15PSTYesYESUSGS3920 Unspecified NONE
9642009-06-24 07:08PSTYesYESUSGS3790 Unspecified NONE
9632009-06-24 07:03PSTYesYESUSGS3780 Unspecified NONE
9622009-06-24 06:58PSTYesYESUSGS3660 Unspecified NONE
9612009-06-24 06:50PSTYesYESUSGS3310 Unspecified NONE
9602009-03-06 11:25PSTYesYESUSGS9590 Unspecified NONE
9592009-03-06 11:21PSTYesYESUSGS9600 Unspecified NONE
9582009-03-06 11:16PSTYesYESUSGS9540 Unspecified NONE
9572009-03-06 11:12PSTYesYESUSGS9540 Unspecified NONE
9562009-03-06 11:08PSTYesYESUSGS9290 Unspecified NONE
9552009-03-06 11:04PSTYesYESUSGS9500 Unspecified NONE
9542008-12-10 15:42PSTYesYESUSGS1860 Unspecified NONE
9532008-12-10 15:39PSTYesYESUSGS1760 Unspecified NONE
9522008-12-10 15:36PSTYesYESUSGS1500 Unspecified NONE
9512008-12-10 15:27PSTYesYESUSGS840 Unspecified NONE
9502008-12-10 15:24PSTYesYESUSGS641 Unspecified NONE
9492008-12-10 15:21PSTYesYESUSGS406 Unspecified NONE
9482008-12-10 15:18PSTYesYESUSGS185 Unspecified NONE
9472008-12-10 15:13PSTYesYESUSGS-121 Unspecified NONE
9462008-12-10 15:10PSTYesYESUSGS-376 Unspecified NONE
9452008-12-10 15:06PSTYesYESUSGS-639 Unspecified NONE
9442008-12-10 15:02PSTYesYESUSGS-833 Unspecified NONE
9432008-12-10 14:59PSTYesYESUSGS-1030 Unspecified NONE
9422008-12-10 14:55PSTYesYESUSGS-1270 Unspecified NONE
9412008-12-10 14:51PSTYesYESUSGS-1400 Unspecified NONE
9402008-12-10 14:47PSTYesYESUSGS-1640 Unspecified NONE
9392008-12-10 14:43PSTYesYESUSGS-1890 Unspecified NONE
9382008-12-10 14:39PSTYesYESUSGS-1990 Unspecified NONE
9372008-12-10 14:35PSTYesYESUSGS-2170 Unspecified NONE
9362008-12-10 14:31PSTYesYESUSGS-2330 Unspecified NONE
9352008-12-10 14:27PSTYesYESUSGS-2400 Unspecified NONE
9342008-12-10 14:23PSTYesYESUSGS-2500 Unspecified NONE
9332008-12-10 14:19PSTYesYESUSGS-2570 Unspecified NONE
9322008-12-10 14:14PSTYesYESUSGS-2700 Unspecified NONE
9312008-12-10 14:10PSTYesYESUSGS-2800 Unspecified NONE
9302008-12-10 14:05PSTYesYESUSGS-2780 Unspecified NONE
9292008-12-10 14:02PSTYesYESUSGS-3000 Unspecified NONE
9282008-12-10 13:58PSTYesYESUSGS-3020 Unspecified NONE
9272008-12-10 13:54PSTYesYESUSGS-3170 Unspecified NONE
9262008-12-10 13:51PSTYesYESUSGS-3100 Unspecified NONE
9252008-12-10 13:47PSTYesYESUSGS-3080 Unspecified NONE
9242008-12-10 13:44PSTYesYESUSGS-3030 Unspecified NONE
9232008-08-20 18:18PSTYesYESUSGS-2710 Unspecified NONE
9222008-08-20 18:16PSTYesYESUSGS-2720 Unspecified NONE
9212008-08-20 18:05PSTYesYESUSGS-2660 Unspecified NONE
9202008-08-20 18:02PSTYesYESUSGS-2610 Unspecified NONE
9192008-08-20 18:00PSTYesYESUSGS-2700 Unspecified NONE
9182008-08-20 17:58PSTYesYESUSGS-2750 Unspecified NONE
9172008-08-20 17:56PSTYesYESUSGS-2770 Unspecified NONE
9162008-08-20 17:53PSTYesYESUSGS-2780 Unspecified NONE
9152008-08-20 17:51PSTYesYESUSGS-2770 Unspecified NONE
9142008-08-20 17:45PSTYesYESUSGS-2760 Unspecified NONE
9132008-08-20 17:43PSTYesYESUSGS-2630 Unspecified NONE
9122008-08-20 17:40PSTYesYESUSGS-2790 Unspecified NONE
9112008-08-20 17:38PSTYesYESUSGS-2780 Unspecified NONE
9102008-08-20 17:36PSTYesYESUSGS-2810 Unspecified NONE
9092008-08-20 17:34PSTYesYESUSGS-2880 Unspecified NONE
9082008-08-20 17:32PSTYesYESUSGS-2740 Unspecified NONE
9072008-08-20 17:30PSTYesYESUSGS-2580 Unspecified NONE
9062008-08-20 17:27PSTYesYESUSGS-2970 Unspecified NONE
9052008-08-20 17:11PSTYesYESUSGS-2640 Unspecified NONE
9042008-08-20 17:09PSTYesYESUSGS-2600 Unspecified NONE
9032008-08-20 17:07PSTYesYESUSGS-2650 Unspecified NONE
9022008-08-20 17:04PSTYesYESUSGS-2630 Unspecified NONE
9012008-08-20 17:02PSTYesYESUSGS-2550 Unspecified NONE
9002008-08-20 17:00PSTYesYESUSGS-2670 Unspecified NONE
8992008-08-20 16:53PSTYesYESUSGS-2570 Unspecified NONE
8982008-08-20 16:50PSTYesYESUSGS-2550 Unspecified NONE
8972008-08-20 16:48PSTYesYESUSGS-2510 Unspecified NONE
8962008-08-20 16:46PSTYesYESUSGS-2510 Unspecified NONE
8952008-08-20 16:44PSTYesYESUSGS-2550 Unspecified NONE
8942008-08-20 16:41PSTYesYESUSGS-2500 Unspecified NONE
8932008-08-20 16:40PSTYesYESUSGS-2430 Unspecified NONE
8922008-08-20 16:37PSTYesYESUSGS-2550 Unspecified NONE
8912008-08-20 16:35PSTYesYESUSGS-2470 Unspecified NONE
8902008-08-20 16:33PSTYesYESUSGS-2410 Unspecified NONE
8892008-08-20 16:24PSTYesYESUSGS-2380 Unspecified NONE
8882008-08-20 16:23PSTYesYESUSGS-2380 Unspecified NONE
8872008-08-20 16:20PSTYesYESUSGS-2530 Unspecified NONE
8862008-08-20 16:18PSTYesYESUSGS-2380 Unspecified NONE
8852008-08-20 16:16PSTYesYESUSGS-2280 Unspecified NONE
8842008-08-20 16:14PSTYesYESUSGS-2240 Unspecified NONE
8832008-08-20 16:12PSTYesYESUSGS-2210 Unspecified NONE
8822008-08-20 16:10PSTYesYESUSGS-2240 Unspecified NONE
8812008-08-20 16:08PSTYesYESUSGS-2120 Unspecified NONE
8802008-08-20 16:06PSTYesYESUSGS-2170 Unspecified NONE
8792008-08-20 16:02PSTYesYESUSGS-2130 Unspecified NONE
8782008-08-20 16:00PSTYesYESUSGS-2110 Unspecified NONE
8772008-08-20 15:58PSTYesYESUSGS-1920 Unspecified NONE
8762008-08-20 15:56PSTYesYESUSGS-1880 Unspecified NONE
8752008-08-20 15:54PSTYesYESUSGS-1820 Unspecified NONE
8742008-08-20 15:52PSTYesYESUSGS-1900 Unspecified NONE
8732008-08-20 15:50PSTYesYESUSGS-1730 Unspecified NONE
8722008-08-20 15:48PSTYesYESUSGS-1700 Unspecified NONE
8712008-08-20 15:47PSTYesYESUSGS-1590 Unspecified NONE
8702008-08-20 15:45PSTYesYESUSGS-1570 Unspecified NONE
8692008-08-20 15:30PSTYesYESUSGS-1130 Unspecified NONE
8682008-08-20 15:28PSTYesYESUSGS-910 Unspecified NONE
8672008-08-20 14:17PSTYesYESUSGS2520 Unspecified NONE
8662008-08-20 14:14PSTYesYESUSGS2650 Unspecified NONE
8652008-08-20 14:12PSTYesYESUSGS2760 Unspecified NONE
8642008-08-20 14:10PSTYesYESUSGS2780 Unspecified NONE
8632008-08-20 14:08PSTYesYESUSGS2840 Unspecified NONE
8622008-08-20 14:06PSTYesYESUSGS3010 Unspecified NONE
8612008-08-20 14:02PSTYesYESUSGS3010 Unspecified NONE
8602008-08-20 13:55PSTYesYESUSGS3220 Unspecified NONE
8592008-08-20 13:52PSTYesYESUSGS3390 Unspecified NONE
8582008-08-20 13:50PSTYesYESUSGS3420 Unspecified NONE
8572008-08-20 13:47PSTYesYESUSGS3550 Unspecified NONE
8562008-08-20 13:45PSTYesYESUSGS3520 Unspecified NONE
8552008-08-20 13:42PSTYesYESUSGS3510 Unspecified NONE
8542008-08-20 13:39PSTYesYESUSGS3580 Unspecified NONE
8532008-08-20 13:36PSTYesYESUSGS3700 Unspecified NONE
8522008-08-20 13:34PSTYesYESUSGS3760 Unspecified NONE
8512008-08-20 13:31PSTYesYESUSGS3740 Unspecified NONE
8502008-08-20 13:28PSTYesYESUSGS3760 Unspecified NONE
8492008-08-20 13:25PSTYesYESUSGS3810 Unspecified NONE
8482008-08-20 13:22PSTYesYESUSGS3880 Unspecified NONE
8472008-08-20 13:18PSTYesYESUSGS3820 Unspecified NONE
8462008-08-20 13:16PSTYesYESUSGS3910 Unspecified NONE
8452008-08-20 13:12PSTYesYESUSGS3990 Unspecified NONE
8442008-08-20 13:10PSTYesYESUSGS3950 Unspecified NONE
8432008-08-20 13:06PSTYesYESUSGS3940 Unspecified NONE
8422008-08-20 13:03PSTYesYESUSGS3990 Unspecified NONE
8412008-08-20 13:00PSTYesYESUSGS4040 Unspecified NONE
8402008-08-20 12:40PSTYesYESUSGS3770 Unspecified NONE
8392008-08-20 12:37PSTYesYESUSGS4100 Unspecified NONE
8382008-08-20 12:33PSTYesYESUSGS4200 Unspecified NONE
8372008-08-20 12:30PSTYesYESUSGS4070 Unspecified NONE
8362008-08-20 12:25PSTYesYESUSGS4030 Unspecified NONE
8352008-08-20 12:22PSTYesYESUSGS4100 Unspecified NONE
8342008-08-20 12:18PSTYesYESUSGS4030 Unspecified NONE
8332008-08-20 12:16PSTYesYESUSGS4190 Unspecified NONE
8322008-08-20 12:11PSTYesYESUSGS4130 Unspecified NONE
8312008-08-20 11:35PSTYesYESUSGS4160 Unspecified NONE
8302008-08-20 11:32PSTYesYESUSGS4100 Unspecified NONE
8292008-08-20 11:29PSTYesYESUSGS4090 Unspecified NONE
8282008-08-20 11:26PSTYesYESUSGS4130 Unspecified NONE
8272008-08-20 11:23PSTYesYESUSGS4170 Unspecified NONE
8262008-08-20 11:19PSTYesYESUSGS4140 Unspecified NONE
8252008-08-20 11:17PSTYesYESUSGS4100 Unspecified NONE
8242008-08-20 11:13PSTYesYESUSGS4080 Unspecified NONE
8232008-08-20 11:11PSTYesYESUSGS4030 Unspecified NONE
8222008-08-20 11:08PSTYesYESUSGS4170 Unspecified NONE
8212008-08-20 11:05PSTYesYESUSGS4250 Unspecified NONE
8202008-08-20 11:02PSTYesYESUSGS4080 Unspecified NONE
8192008-08-20 10:32PSTYesYESUSGS4020 Unspecified NONE
8182008-08-20 10:29PSTYesYESUSGS4010 Unspecified NONE
8172008-08-20 10:26PSTYesYESUSGS3940 Unspecified NONE
8162008-08-20 10:23PSTYesYESUSGS3960 Unspecified NONE
8152008-08-20 10:21PSTYesYESUSGS4040 Unspecified NONE
8142008-08-20 10:18PSTYesYESUSGS3900 Unspecified NONE
8132008-08-20 10:15PSTYesYESUSGS3920 Unspecified NONE
8122008-08-20 10:13PSTYesYESUSGS3960 Unspecified NONE
8112008-08-20 10:10PSTYesYESUSGS3970 Unspecified NONE
8102008-08-20 10:07PSTYesYESUSGS3950 Unspecified NONE
8092008-08-20 10:05PSTYesYESUSGS3910 Unspecified NONE
8082008-08-20 10:02PSTYesYESUSGS4010 Unspecified NONE
8072008-08-20 10:00PSTYesYESUSGS3880 Unspecified NONE
8062008-08-20 09:57PSTYesYESUSGS3990 Unspecified NONE
8052008-08-20 09:54PSTYesYESUSGS3900 Unspecified NONE
8042008-08-20 09:51PSTYesYESUSGS3920 Unspecified NONE
8032008-08-20 09:49PSTYesYESUSGS3810 Unspecified NONE
8022008-08-20 09:47PSTYesYESUSGS3840 Unspecified NONE
8012008-08-20 09:44PSTYesYESUSGS3810 Unspecified NONE
8002008-08-20 09:42PSTYesYESUSGS3840 Unspecified NONE
7992008-08-20 09:39PSTYesYESUSGS3760 Unspecified NONE
7982008-08-20 09:37PSTYesYESUSGS3740 Unspecified NONE
7972008-08-20 09:34PSTYesYESUSGS3850 Unspecified NONE
7962008-08-20 09:32PSTYesYESUSGS3770 Unspecified NONE
7952008-08-20 09:29PSTYesYESUSGS3700 Unspecified NONE
7942008-08-20 09:27PSTYesYESUSGS3770 Unspecified NONE
7932008-08-20 09:24PSTYesYESUSGS3690 Unspecified NONE
7922008-08-20 09:22PSTYesYESUSGS3680 Unspecified NONE
7912008-08-20 09:20PSTYesYESUSGS3640 Unspecified NONE
7902008-08-20 09:17PSTYesYESUSGS3580 Unspecified NONE
7892008-08-20 09:15PSTYesYESUSGS3570 Unspecified NONE
7882008-08-20 09:13PSTYesYESUSGS3570 Unspecified NONE
7872008-08-20 09:10PSTYesYESUSGS3620 Unspecified NONE
7862008-08-20 09:07PSTYesYESUSGS3420 Unspecified NONE
7852008-08-20 09:03PSTYesYESUSGS3350 Unspecified NONE
7842008-08-20 09:00PSTYesYESUSGS3290 Unspecified NONE
7832008-08-20 08:56PSTYesYESUSGS3380 Unspecified NONE
7822008-08-20 08:53PSTYesYESUSGS3190 Unspecified NONE
7812008-08-20 08:50PSTYesYESUSGS3230 Unspecified NONE
7802008-08-20 08:46PSTYesYESUSGS3160 Unspecified NONE
7792008-08-20 08:44PSTYesYESUSGS3100 Unspecified NONE
7782008-08-20 08:40PSTYesYESUSGS2970 Unspecified NONE
7772008-08-20 08:36PSTYesYESUSGS2930 Unspecified NONE
7762008-08-20 08:33PSTYesYESUSGS2930 Unspecified NONE
7752008-08-20 08:30PSTYesYESUSGS2970 Unspecified NONE
7742008-08-20 08:27PSTYesYESUSGS2730 Unspecified NONE
7732008-08-20 08:23PSTYesYESUSGS2640 Unspecified NONE
7722008-08-20 08:20PSTYesYESUSGS2610 Unspecified NONE
7712008-08-20 08:18PSTYesYESUSGS2560 Unspecified NONE
7702008-08-20 08:15PSTYesYESUSGS2340 Unspecified NONE
7692008-08-20 08:03PSTYesYESUSGS1930 Unspecified NONE
7682008-08-20 08:00PSTYesYESUSGS1780 Unspecified NONE
7672008-08-20 07:58PSTYesYESUSGS1680 Unspecified NONE
7662008-08-20 07:55PSTYesYESUSGS1440 Unspecified NONE
7652008-08-20 07:52PSTYesYESUSGS1400 Unspecified NONE
7642008-08-20 07:50PSTYesYESUSGS1250 Unspecified NONE
7632008-08-20 07:47PSTYesYESUSGS1110 Unspecified NONE
7622008-08-20 07:45PSTYesYESUSGS878 Unspecified NONE
7612008-08-20 07:42PSTYesYESUSGS793 Unspecified NONE
7602008-08-20 07:40PSTYesYESUSGS600 Unspecified NONE
7592008-08-20 07:33PSTYesYESUSGS235 Unspecified NONE
7582008-08-20 07:30PSTYesYESUSGS145 Unspecified NONE
7572008-08-20 07:28PSTYesYESUSGS69.7 Unspecified NONE
7562008-08-20 07:25PSTYesYESUSGS-77.6 Unspecified NONE
7552008-08-20 07:23PSTYesYESUSGS-200 Unspecified NONE
7542008-08-20 07:11PSTYesYESUSGS-554 Unspecified NONE
7532008-08-20 07:09PSTYesYESUSGS-690 Unspecified NONE
7522008-08-20 07:07PSTYesYESUSGS-825 Unspecified NONE
7512008-08-20 07:05PSTYesYESUSGS-918 Unspecified NONE
7502008-08-20 06:58PSTYesYESUSGS-1160 Unspecified NONE
7492008-01-30 11:31PSTYesPSx/CRBUSGS85107.86 Unspecified NONE
7482008-01-30 11:26PSTYesPSx/CRBUSGS85307.87 Unspecified NONE
7472008-01-30 11:21PSTYesPSx/CRBUSGS86407.87 Unspecified NONE
7462008-01-30 11:17PSTYesPSx/CRBUSGS84507.87 Unspecified NONE
7452008-01-30 11:12PSTYesPSx/CRBUSGS84707.88 Unspecified NONE
7442008-01-30 11:08PSTYesPSx/CRBUSGS83207.88 Unspecified NONE
7432008-01-02 15:24PSTYesJEG/BJSUSGS38205.04 Unspecified NONE
7422008-01-02 15:20PSTYesJEG/BJSUSGS36205.06 Unspecified NONE
7412008-01-02 15:18PSTYesJEG/BJSUSGS36905.07 Unspecified NONE
7402008-01-02 15:15PSTYesJEG/BJSUSGS36805.09 Unspecified NONE
7392008-01-02 15:12PSTYesJEG/BJSUSGS36905.11 Unspecified NONE
7382008-01-02 15:10PSTYesJEG/BJSUSGS36105.12 Unspecified NONE
7372008-01-02 15:07PSTYesJEG/BJSUSGS36405.14 Unspecified NONE
7362008-01-02 15:04PSTYesJEG/BJSUSGS35705.15 Unspecified NONE
7352008-01-02 15:02PSTYesJEG/BJSUSGS36405.17 Unspecified NONE
7342008-01-02 14:56PSTYesJEG/BJSUSGS35805.20 Unspecified NONE
7332007-11-07 13:36PSTYesPSx/CRBUSGS-27705.17 Unspecified NONE
7322007-11-07 13:32PSTYesPSx/CRBUSGS-27405.13 Unspecified NONE
7312007-11-07 13:29PSTYesPSx/CRBUSGS-29005.10 Unspecified NONE
7302007-11-07 13:26PSTYesPSx/CRBUSGS-28805.08 Unspecified NONE
7292007-11-07 13:22PSTYesPSx/CRBUSGS-27705.06 Unspecified NONE
7282007-11-07 13:15PSTYesPSx/CRBUSGS-27605.01 Unspecified NONE
7272007-11-07 13:09PSTYesPSx/CRBUSGS-27404.96 Unspecified NONE
7262007-11-07 13:06PSTYesPSx/CRBUSGS-26404.93 Unspecified NONE
7252007-11-07 13:02PSTYesPSx/CRBUSGS-27404.90 Unspecified NONE
7242007-08-29 16:34PSTYesPSx/JEGUSGS-9745.06 Unspecified NONE
7232007-08-29 16:29PSTYesPSx/JEGUSGS-8675.02 Unspecified NONE
7222007-08-29 16:25PSTYesPSx/JEGUSGS-9264.99 Unspecified NONE
7212007-08-29 16:22PSTYesPSx/JEGUSGS-8994.97 Unspecified NONE
7202007-08-29 16:20PSTYesPSx/JEGUSGS-9354.95 Unspecified NONE
7192007-08-29 16:17PSTYesPSx/JEGUSGS-8604.91 Unspecified NONE
7182007-08-29 16:05PSTYesPSx/JEGUSGS-7914.83 Unspecified NONE
7172007-08-29 16:01PSTYesPSx/JEGUSGS-7994.81 Unspecified NONE
7162007-08-29 15:55PSTYesPSx/JEGUSGS-8854.77 Unspecified NONE
7152007-08-29 15:49PSTYesPSx/JEGUSGS-5884.72 Unspecified NONE
7142007-08-29 15:44PSTYesPSx/JEGUSGS-7524.68 Unspecified NONE
7132007-08-29 15:39PSTYesPSx/JEGUSGS-4874.64 Unspecified NONE
7122007-08-29 15:34PSTYesPSx/JEGUSGS-5934.62 Unspecified NONE
7112007-08-29 15:29PSTYesPSx/JEGUSGS-3464.57 Unspecified NONE
7102007-08-29 15:25PSTYesPSx/JEGUSGS-5034.51 Unspecified NONE
7092007-08-29 15:20PSTYesPSx/JEGUSGS-1874.47 Unspecified NONE
7082007-08-29 15:16PSTYesPSx/JEGUSGS-2554.43 Unspecified NONE
7072007-08-29 15:12PSTYesPSx/JEGUSGS-44.04.38 Unspecified NONE
7062007-08-29 15:07PSTYesPSx/JEGUSGS42.04.33 Unspecified NONE
7052007-08-29 15:02PSTYesPSx/JEGUSGS77.04.29 Unspecified NONE
7042007-08-29 14:56PSTYesPSx/JEGUSGS2714.26 Unspecified NONE
7032007-08-29 14:52PSTYesPSx/JEGUSGS5404.23 Unspecified NONE
7022007-08-29 14:47PSTYesPSx/JEGUSGS5164.20 Unspecified NONE
7012007-08-29 14:41PSTYesPSx/JEGUSGS9824.15 Unspecified NONE
7002007-08-29 14:37PSTYesPSx/JEGUSGS8534.10 Unspecified NONE
6992007-08-29 14:28PSTYesPSx/JEGUSGS12904.03 Unspecified NONE
6982007-08-29 14:26PSTYesPSx/JEGUSGS15904.02 Unspecified NONE
6972007-08-29 14:24PSTYesPSx/JEGUSGS14603.99 Unspecified NONE
6962007-08-29 14:22PSTYesPSx/JEGUSGS15503.97 Unspecified NONE
6952007-08-29 14:20PSTYesPSx/JEGUSGS16903.94 Unspecified NONE
6942007-08-29 14:18PSTYesPSx/JEGUSGS17803.92 Unspecified NONE
6932007-08-29 14:16PSTYesPSx/JEGUSGS17703.90 Unspecified NONE
6922007-08-29 14:14PSTYesPSx/JEGUSGS18803.89 Unspecified NONE
6912007-08-29 14:11PSTYesPSx/JEGUSGS19203.87 Unspecified NONE
6902007-08-29 14:10PSTYesPSx/JEGUSGS20803.85 Unspecified NONE
6892007-08-29 14:08PSTYesPSx/JEGUSGS20503.83 Unspecified NONE
6882007-08-29 14:06PSTYesPSx/JEGUSGS22203.81 Unspecified NONE
6872007-08-29 14:04PSTYesPSx/JEGUSGS21703.79 Unspecified NONE
6862007-08-29 14:02PSTYesPSx/JEGUSGS24103.77 Unspecified NONE
6852007-08-29 14:00PSTYesPSx/JEGUSGS23903.75 Unspecified NONE
6842007-08-29 13:58PSTYesPSx/JEGUSGS24203.73 Unspecified NONE
6832007-08-29 13:56PSTYesPSx/JEGUSGS24203.71 Unspecified NONE
6822007-08-29 13:54PSTYesPSx/JEGUSGS26203.70 Unspecified NONE
6812007-08-29 13:51PSTYesPSx/JEGUSGS24803.70 Unspecified NONE
6802007-08-29 13:49PSTYesPSx/JEGUSGS25803.69 Unspecified NONE
6792007-08-29 13:48PSTYesPSx/JEGUSGS27403.67 Unspecified NONE
6782007-08-29 13:46PSTYesPSx/JEGUSGS27503.66 Unspecified NONE
6772007-08-29 13:44PSTYesPSx/JEGUSGS27003.65 Unspecified NONE
6762007-08-29 13:42PSTYesPSx/JEGUSGS29803.64 Unspecified NONE
6752007-08-29 13:36PSTYesPSx/JEGUSGS29803.62 Unspecified NONE
6742007-08-29 13:34PSTYesPSx/JEGUSGS31003.61 Unspecified NONE
6732007-08-29 13:31PSTYesPSx/JEGUSGS32203.61 Unspecified NONE
6722007-08-29 13:29PSTYesPSx/JEGUSGS32803.60 Unspecified NONE
6712007-08-29 13:27PSTYesPSx/JEGUSGS31403.58 Unspecified NONE
6702007-08-29 13:25PSTYesPSx/JEGUSGS32703.56 Unspecified NONE
6692007-08-29 13:23PSTYesPSx/JEGUSGS33603.55 Unspecified NONE
6682007-08-29 13:20PSTYesPSx/JEGUSGS35303.54 Unspecified NONE
6672007-08-29 13:18PSTYesPSx/JEGUSGS34803.53 Unspecified NONE
6662007-08-29 13:16PSTYesPSx/JEGUSGS37203.51 Unspecified NONE
6652007-08-29 13:14PSTYesPSx/JEGUSGS37403.49 Unspecified NONE
6642007-08-29 13:12PSTYesPSx/JEGUSGS37803.48 Unspecified NONE
6632007-08-29 13:10PSTYesPSx/JEGUSGS38803.46 Unspecified NONE
6622007-08-29 13:07PSTYesPSx/JEGUSGS38903.45 Unspecified NONE
6612007-08-29 13:05PSTYesPSx/JEGUSGS37603.45 Unspecified NONE
6602007-08-29 13:02PSTYesPSx/JEGUSGS39903.45 Unspecified NONE
6592007-08-29 13:00PSTYesPSx/JEGUSGS39603.46 Unspecified NONE
6582007-08-29 12:57PSTYesPSx/JEGUSGS40803.46 Unspecified NONE
6572007-08-29 12:55PSTYesPSx/JEGUSGS40903.46 Unspecified NONE
6562007-08-29 12:53PSTYesPSx/JEGUSGS41903.46 Unspecified NONE
6552007-08-29 12:50PSTYesPSx/JEGUSGS41603.45 Unspecified NONE
6542007-08-29 12:48PSTYesPSx/JEGUSGS41903.45 Unspecified NONE
6532007-08-29 12:46PSTYesPSx/JEGUSGS41703.44 Unspecified NONE
6522007-08-29 12:43PSTYesPSx/JEGUSGS42903.45 Unspecified NONE
6512007-08-29 12:41PSTYesPSx/JEGUSGS42403.45 Unspecified NONE
6502007-08-29 12:39PSTYesPSx/JEGUSGS42903.46 Unspecified NONE
6492007-08-29 12:36PSTYesPSx/JEGUSGS43503.48 Unspecified NONE
6482007-08-29 12:34PSTYesPSx/JEGUSGS44303.49 Unspecified NONE
6472007-08-29 12:31PSTYesPSx/JEGUSGS43503.50 Unspecified NONE
6462007-08-29 12:28PSTYesPSx/JEGUSGS44403.51 Unspecified NONE
6452007-08-29 12:26PSTYesPSx/JEGUSGS44803.52 Unspecified NONE
6442007-08-29 12:22PSTYesPSx/JEGUSGS44303.53 Unspecified NONE
6432007-08-29 12:02PSTYesPSx/JEGUSGS44103.60 Unspecified NONE
6422007-08-29 11:02PSTYesPSx/JEGUSGS47403.94 Unspecified NONE
6412007-08-29 11:00PSTYesPSx/JEGUSGS47303.95 Unspecified NONE
6402007-08-29 10:57PSTYesPSx/JEGUSGS45803.96 Unspecified NONE
6392007-08-29 10:55PSTYesPSx/JEGUSGS47003.98 Unspecified NONE
6382007-08-29 10:53PSTYesPSx/JEGUSGS46603.99 Unspecified NONE
6372007-08-29 10:50PSTYesPSx/JEGUSGS47404.01 Unspecified NONE
6362007-08-29 10:48PSTYesPSx/JEGUSGS48204.02 Unspecified NONE
6352007-08-29 10:45PSTYesPSx/JEGUSGS46104.03 Unspecified NONE
6342007-08-29 10:43PSTYesPSx/JEGUSGS47304.05 Unspecified NONE
6332007-08-29 10:41PSTYesPSx/JEGUSGS47704.06 Unspecified NONE
6322007-08-29 10:38PSTYesPSx/JEGUSGS46404.08 Unspecified NONE
6312007-08-29 10:35PSTYesPSx/JEGUSGS46304.09 Unspecified NONE
6302007-08-29 10:33PSTYesPSx/JEGUSGS46404.11 Unspecified NONE
6292007-08-29 10:29PSTYesPSx/JEGUSGS46504.14 Unspecified NONE
6282007-08-29 10:27PSTYesPSx/JEGUSGS47004.15 Unspecified NONE
6272007-08-29 10:19PSTYesPSx/JEGUSGS47204.20 Unspecified NONE
6262007-08-29 10:17PSTYesPSx/JEGUSGS45904.21 Unspecified NONE
6252007-08-29 09:48PSTYesPSx/JEGUSGS47004.41 Unspecified NONE
6242007-08-29 09:46PSTYesPSx/JEGUSGS46904.43 Unspecified NONE
6232007-08-29 09:44PSTYesPSx/JEGUSGS48104.44 Unspecified NONE
6222007-08-29 09:41PSTYesPSx/JEGUSGS46804.46 Unspecified NONE
6212007-08-29 09:39PSTYesPSx/JEGUSGS48304.48 Unspecified NONE
6202007-08-29 09:36PSTYesPSx/JEGUSGS46804.49 Unspecified NONE
6192007-08-29 09:30PSTYesPSx/JEGUSGS47304.53 Unspecified NONE
6182007-08-29 09:28PSTYesPSx/JEGUSGS47204.55 Unspecified NONE
6172007-08-29 09:25PSTYesPSx/JEGUSGS46804.58 Unspecified NONE
6162007-08-29 09:23PSTYesPSx/JEGUSGS48604.60 Unspecified NONE
6152007-02-07 11:13PSTYes???USGS39005.01 Unspecified NONE
6142007-02-07 11:09PSTYes???USGS37805.02 Unspecified NONE
6132007-02-07 11:06PSTYes???USGS38405.04 Unspecified NONE
6122007-02-07 08:32PSTYes???USGS5745.74 Unspecified NONE
6112007-02-07 08:29PSTYes???USGS5105.73 Unspecified NONE
6102007-02-07 08:26PSTYes???USGS4875.74 Unspecified NONE
6092007-02-07 08:22PSTYes???USGS4915.73 Unspecified NONE
6082007-02-07 08:19PSTYes???USGS3785.72 Unspecified NONE
6072007-02-07 08:15PSTYes???USGS3105.71 Unspecified NONE
6062007-02-07 08:11PSTYes???USGS2575.68 Unspecified NONE
6052007-02-07 08:07PSTYes???USGS2565.66 Unspecified NONE
6042007-02-07 08:03PSTYes???USGS5.005.65 Unspecified NONE
6032007-02-07 07:58PSTYes???USGS62.05.64 Unspecified NONE
6022007-02-07 07:54PSTYes???USGS-21.05.64 Unspecified NONE
6012007-02-07 07:50PSTYes???USGS-70.05.62 Unspecified NONE
6002007-02-07 07:46PSTYes???USGS-2205.61 Unspecified NONE
5992007-02-07 07:42PSTYes???USGS-2075.59 Unspecified NONE
5982007-02-07 07:39PSTYes???USGS-3535.58 Unspecified NONE
5972007-02-07 07:35PSTYes???USGS-3525.57 Unspecified NONE
5962007-02-07 07:32PSTYes???USGS-3935.55 Unspecified NONE
5952007-02-07 07:29PSTYes???USGS-4175.53 Unspecified NONE
5942007-02-07 07:25PSTYes???USGS-4205.51 Unspecified NONE
5932007-02-07 07:22PSTYes???USGS-5085.49 Unspecified NONE
5922007-02-07 07:19PSTYes???USGS-4825.46 Unspecified NONE
5912007-02-07 07:14PSTYes???USGS-5005.41 Unspecified NONE
5902007-02-07 07:09PSTYes???USGS-6565.41 Unspecified NONE
5892007-02-07 07:06PSTYes???USGS-5695.40 Unspecified NONE
5882006-10-24 14:16PSTYes???USGS-22205.19 Unspecified NONE
5872006-10-24 14:11PSTYes???USGS-21205.15 Unspecified NONE
5862006-10-24 14:06PSTYes???USGS-20205.11 Unspecified NONE
5852006-10-24 14:01PSTYes???USGS-18705.07 Unspecified NONE
5842006-10-24 13:53PSTYes???USGS-16505.01 Unspecified NONE
5832006-10-24 13:46PSTYes???USGS-14004.95 Unspecified NONE
5822006-10-24 13:40PSTYes???USGS-11404.91 Unspecified NONE
5812006-10-24 13:36PSTYes???USGS-9674.87 Unspecified NONE
5802006-10-24 13:22PSTYes???USGS-2724.76 Unspecified NONE
5792006-10-24 13:17PSTYes???USGS-91.04.73 Unspecified NONE
5782006-10-24 13:10PSTYes???USGS3004.67 Unspecified NONE
5772006-10-24 13:04PSTYes???USGS5204.62 Unspecified NONE
5762006-10-24 12:46PSTYes???USGS11804.27 Unspecified NONE
5752006-10-24 12:41PSTYes???USGS13504.50 Unspecified NONE
5742006-09-28 17:27PSTYes???USGS-9285.96 Unspecified NONE
5732006-09-28 17:24PSTYes???USGS-9435.94 Unspecified NONE
5722006-09-28 17:20PSTYes???USGS-8395.92 Unspecified NONE
5712006-09-28 17:08PSTYes???USGS-7215.85 Unspecified NONE
5702006-09-28 16:51PSTYes???USGS-4075.73 Unspecified NONE
5692006-09-28 16:48PSTYes???USGS-3645.69 Unspecified NONE
5682006-09-28 16:44PSTYes???USGS-3205.66 Unspecified NONE
5672006-09-28 16:40PSTYes???USGS-2115.63 Unspecified NONE
5662006-09-28 16:36PSTYes???USGS-1355.61 Unspecified NONE
5652006-09-28 16:31PSTYes???USGS-1.005.58 Unspecified NONE
5642006-09-28 16:27PSTYes???USGS56.05.55 Unspecified NONE
5632006-09-28 16:24PSTYes???USGS1505.51 Unspecified NONE
5622006-09-28 16:20PSTYes???USGS2595.47 Unspecified NONE
5612006-09-28 16:16PSTYes???USGS4025.45 Unspecified NONE
5602006-09-28 16:12PSTYes???USGS4955.43 Unspecified NONE
5592006-09-28 16:09PSTYes???USGS6275.40 Unspecified NONE
5582006-09-28 16:06PSTYes???USGS6835.38 Unspecified NONE
5572006-09-28 16:02PSTYes???USGS8385.35 Unspecified NONE
5562006-09-28 15:57PSTYes???USGS10005.31 Unspecified NONE
5552006-09-28 15:53PSTYes???USGS11005.29 Unspecified NONE
5542006-09-28 15:49PSTYes???USGS11605.26 Unspecified NONE
5532006-09-28 15:46PSTYes???USGS13005.24 Unspecified NONE
5522006-09-28 15:38PSTYes???USGS14805.19 Unspecified NONE
5512006-09-28 15:34PSTYes???USGS15705.17 Unspecified NONE
5502006-08-24 15:30PSTYes???USGS8944.95 Unspecified NONE
5492006-08-24 15:26PSTYes???USGS8024.92 Unspecified NONE
5482006-08-24 15:22PSTYes???USGS8684.88 Unspecified NONE
5472006-08-24 15:04PSTYes???USGS10404.76 Unspecified NONE
5462006-08-24 15:01PSTYes???USGS12004.74 Unspecified NONE
5452006-08-24 14:57PSTYes???USGS11304.70 Unspecified NONE
5442006-08-24 14:53PSTYes???USGS13404.66 Unspecified NONE
5432006-08-24 14:49PSTYes???USGS13904.63 Unspecified NONE
5422006-08-24 14:45PSTYes???USGS16004.59 Unspecified NONE
5412006-08-24 14:41PSTYes???USGS15904.57 Unspecified NONE
5402006-08-24 14:38PSTYes???USGS17804.55 Unspecified NONE
5392006-08-24 14:34PSTYes???USGS18704.51 Unspecified NONE
5382006-08-24 14:30PSTYes???USGS19704.48 Unspecified NONE
5372006-08-24 14:26PSTYes???USGS20504.45 Unspecified NONE
5362006-08-24 14:22PSTYes???USGS23604.42 Unspecified NONE
5352006-08-24 14:11PSTYes???USGS25204.34 Unspecified NONE
5342006-08-24 14:07PSTYes???USGS26904.31 Unspecified NONE
5332006-08-24 13:57PSTYes???USGS29604.24 Unspecified NONE
5322006-08-24 13:53PSTYes???USGS30904.22 Unspecified NONE
5312006-08-24 13:48PSTYes???USGS31504.19 Unspecified NONE
5302006-08-24 13:42PSTYes???USGS33004.16 Unspecified NONE
5292006-08-24 13:31PSTYes???USGS36004.10 Unspecified NONE
5282006-08-24 13:26PSTYes???USGS37304.08 Unspecified NONE
5272006-08-24 13:17PSTYes???USGS39304.04 Unspecified NONE
5262006-08-24 13:12PSTYes???USGS39704.02 Unspecified NONE
5252006-08-24 13:01PSTYes???USGS43004.00 Unspecified NONE
5242006-08-24 12:57PSTYes???USGS42104.00 Unspecified NONE
5232006-08-24 12:52PSTYes???USGS43704.00 Unspecified NONE
5222006-08-24 12:48PSTYes???USGS44204.00 Unspecified NONE
5212006-08-24 12:44PSTYes???USGS45704.00 Unspecified NONE
5202006-08-24 12:40PSTYes???USGS45204.01 Unspecified NONE
5192006-08-24 12:22PSTYes???USGS46504.06 Unspecified NONE
5182006-08-24 12:19PSTYes???USGS47404.07 Unspecified NONE
5172006-08-24 12:12PSTYes???USGS47104.10 Unspecified NONE
5162006-08-24 12:07PSTYes???USGS47404.12 Unspecified NONE
5152006-08-24 11:47PSTYes???USGS48704.21 Unspecified NONE
5142006-08-24 11:44PSTYes???USGS48804.23 Unspecified NONE
5132006-08-24 11:27PSTYes???USGS48404.31 Unspecified NONE
5122006-08-24 11:24PSTYes???USGS48404.33 Unspecified NONE
5112006-08-24 11:03PSTYes???USGS50504.44 Unspecified NONE
5102006-08-24 10:59PSTYes???USGS49704.46 Unspecified NONE
5092006-08-24 10:25PSTYes???USGS50004.66 Unspecified NONE
5082006-08-24 10:20PSTYes???USGS50004.68 Unspecified NONE
5072006-08-24 10:16PSTYes???USGS50504.71 Unspecified NONE
5062006-08-24 10:11PSTYes???USGS50404.74 Unspecified NONE
5052006-08-24 09:39PSTYes???USGS50304.92 Unspecified NONE
5042006-08-24 09:35PSTYes???USGS50004.94 Unspecified NONE
5032006-08-24 09:30PSTYes???USGS50804.97 Unspecified NONE
5022006-08-24 09:25PSTYes???USGS50505.00 Unspecified NONE
5012006-08-24 09:02PSTYes???USGS49405.13 Unspecified NONE
5002006-08-24 08:57PSTYes???USGS49805.16 Unspecified NONE
4992006-08-24 08:41PSTYes???USGS49405.25 Unspecified NONE
4982006-08-24 08:36PSTYes???USGS50005.28 Unspecified NONE
4972006-08-24 08:10PSTYes???USGS49305.43 Unspecified NONE
4962006-08-24 08:05PSTYes???USGS48505.45 Unspecified NONE
4952006-08-24 08:00PSTYes???USGS48205.48 Unspecified NONE
4942006-08-24 07:54PSTYes???USGS48405.51 Unspecified NONE
4932006-08-24 07:49PSTYes???USGS48405.54 Unspecified NONE
4922006-03-07 11:19PSTYes???USGS1560011.64 Unspecified NONE
4912006-03-07 11:14PSTYes???USGS1570011.64 Unspecified NONE
4902006-03-07 11:09PSTYes???USGS1570011.64 Unspecified NONE
4892006-03-07 11:04PSTYes???USGS1550011.64 Unspecified NONE
4882006-03-07 10:59PSTYes???USGS1560011.64 Unspecified NONE
4872006-03-07 10:55PSTYes???USGS1550011.64 Unspecified NONE
4862006-01-04 14:19PSTYes???USGS1990014.59 Unspecified NONE
4852006-01-04 14:13PSTYes???USGS2000014.60 Unspecified NONE
4842006-01-04 14:07PSTYes???USGS2000014.60 Unspecified NONE
4832006-01-04 14:02PSTYes???USGS1950014.60 Unspecified NONE
4822005-12-29 12:49PSTYes???USGS1870013.82 Unspecified NONE
4812005-12-29 12:44PSTYes???USGS1940013.81 Unspecified NONE
4802005-12-29 12:39PSTYes???USGS1880013.80 Unspecified NONE
4792005-12-29 12:35PSTYes???USGS1900013.79 Unspecified NONE
4782005-12-29 12:30PSTYes???USGS1920013.78 Unspecified NONE
4772005-12-29 12:26PSTYes???USGS1970013.77 Unspecified NONE
4762005-05-23 10:52PSTYes???USGS1600010.00 Unspecified NONE
4752005-05-23 10:47PSTYes???USGS1620010.02 Unspecified NONE
4742005-05-23 10:43PSTYes???USGS1550010.02 Unspecified NONE
4732005-05-23 10:39PSTYes???USGS1570010.02 Unspecified NONE
4722005-05-23 10:34PSTYes???USGS1610010.02 Unspecified NONE
4712005-05-23 10:30PSTYes???USGS1580010.03 Unspecified NONE
4702004-12-01 17:35PSTYes???USGS-15204.31 Unspecified NONE
4692004-12-01 17:31PSTYes???USGS-15404.27 Unspecified NONE
4682004-12-01 17:27PSTYes???USGS-15204.25 Unspecified NONE
4672004-12-01 17:24PSTYes???USGS-15804.23 Unspecified NONE
4662004-12-01 17:20PSTYes???USGS-15704.21 Unspecified NONE
4652004-12-01 17:17PSTYes???USGS-15504.19 Unspecified NONE
4642004-12-01 17:13PSTYes???USGS-15604.18 Unspecified NONE
4632004-12-01 17:10PSTYes???USGS-15204.16 Unspecified NONE
4622004-12-01 17:07PSTYes???USGS-15304.14 Unspecified NONE
4612004-12-01 17:03PSTYes???USGS-15104.12 Unspecified NONE
4602004-12-01 17:00PSTYes???USGS-15204.10 Unspecified NONE
4592004-12-01 16:57PSTYes???USGS-14604.08 Unspecified NONE
4582004-12-01 16:48PSTYes???USGS-14104.02 Unspecified NONE
4572004-12-01 16:44PSTYes???USGS-14203.99 Unspecified NONE
4562004-12-01 16:41PSTYes???USGS-13403.97 Unspecified NONE
4552004-12-01 16:35PSTYes???USGS-13203.93 Unspecified NONE
4542004-12-01 16:32PSTYes???USGS-13203.91 Unspecified NONE
4532004-12-01 16:28PSTYes???USGS-12603.89 Unspecified NONE
4522004-12-01 16:25PSTYes???USGS-12203.87 Unspecified NONE
4512004-12-01 16:05PSTYes???USGS-8063.74 Unspecified NONE
4502004-12-01 16:01PSTYes???USGS-7713.72 Unspecified NONE
4492004-12-01 15:58PSTYes???USGS-6323.70 Unspecified NONE
4482004-12-01 15:55PSTYes???USGS-5603.68 Unspecified NONE
4472004-12-01 15:51PSTYes???USGS-4653.65 Unspecified NONE
4462004-12-01 15:48PSTYes???USGS-3443.63 Unspecified NONE
4452004-12-01 15:44PSTYes???USGS-2143.60 Unspecified NONE
4442004-12-01 15:41PSTYes???USGS-1493.58 Unspecified NONE
4432004-12-01 15:38PSTYes???USGS-45.03.56 Unspecified NONE
4422004-12-01 15:34PSTYes???USGS18.03.54 Unspecified NONE
4412004-12-01 15:31PSTYes???USGS1933.52 Unspecified NONE
4402004-12-01 15:28PSTYes???USGS2573.50 Unspecified NONE
4392004-12-01 15:25PSTYes???USGS3993.48 Unspecified NONE
4382004-12-01 15:21PSTYes???USGS4533.46 Unspecified NONE
4372004-12-01 15:17PSTYes???USGS5423.43 Unspecified NONE
4362004-12-01 15:13PSTYes???USGS5723.41 Unspecified NONE
4352004-12-01 15:10PSTYes???USGS7213.38 Unspecified NONE
4342004-12-01 15:05PSTYes???USGS8323.37 Unspecified NONE
4332004-12-01 15:01PSTYes???USGS9333.35 Unspecified NONE
4322004-12-01 14:57PSTYes???USGS9813.33 Unspecified NONE
4312004-12-01 14:52PSTYes???USGS10803.31 Unspecified NONE
4302004-12-01 14:45PSTYes???USGS12503.26 Unspecified NONE
4292004-12-01 14:41PSTYes???USGS13203.25 Unspecified NONE
4282004-12-01 14:36PSTYes???USGS14603.23 Unspecified NONE
4272004-12-01 14:31PSTYes???USGS15403.22 Unspecified NONE
4262004-12-01 14:26PSTYes???USGS16103.18 Unspecified NONE
4252004-12-01 14:21PSTYes???USGS17503.17 Unspecified NONE
4242004-02-28 10:35PSTYes???USGS1530010.16 Unspecified NONE
4232004-02-28 10:30PSTYes???USGS1540010.16 Unspecified NONE
4222004-02-28 10:25PSTYes???USGS1500010.17 Unspecified NONE
4212004-02-28 10:20PSTYes???USGS1540010.16 Unspecified NONE
4202004-02-28 10:15PSTYes???USGS1510010.16 Unspecified NONE
4192004-02-28 10:10PSTYes???USGS1520010.15 Unspecified NONE
4182003-09-24 10:29PSTYes???USGS41802.84 Unspecified NONE
4172003-09-24 10:25PSTYes???USGS41402.84 Unspecified NONE
4162003-09-24 10:17PSTYes???USGS41802.88 Unspecified NONE
4152003-09-24 10:12PSTYes???USGS42902.90 Unspecified NONE
4142003-09-24 10:08PSTYes???USGS41402.92 Unspecified NONE
4132003-09-24 10:05PSTYes???USGS42602.94 Unspecified NONE
4122003-09-24 10:01PSTYes???USGS42602.96 Unspecified NONE
4112003-09-24 09:56PSTYes???USGS43802.98 Unspecified NONE
4102003-09-24 09:50PSTYes???USGS43703.00 Unspecified NONE
4092003-09-24 09:44PSTYes???USGS44703.04 Unspecified NONE
4082003-09-24 09:40PSTYes???USGS43503.07 Unspecified NONE
4072003-09-24 09:35PSTYes???USGS42503.10 Unspecified NONE
4062003-09-24 09:30PSTYes???USGS44803.13 Unspecified NONE
4052003-09-24 09:25PSTYes???USGS44403.14 Unspecified NONE
4042003-09-24 09:21PSTYes???USGS44603.17 Unspecified NONE
4032003-09-24 08:37PSTYes???USGS45703.41 Unspecified NONE
4022003-09-24 08:26PSTYes???USGS45503.49 Unspecified NONE
4012003-09-24 08:08PSTYes???USGS45603.60 Unspecified NONE
4002003-09-24 08:02PSTYes???USGS46103.63 Unspecified NONE
3992003-09-24 07:56PSTYes???USGS45903.67 Unspecified NONE
3982003-09-24 07:51PSTYes???USGS46203.70 Unspecified NONE
3972003-09-24 07:46PSTYes???USGS45903.75 Unspecified NONE
3962003-09-24 07:41PSTYes???USGS45203.76 Unspecified NONE
3952003-09-24 07:34PSTYes???USGS44503.81 Unspecified NONE
3942003-09-24 07:09PSTYes???USGS46003.96 Unspecified NONE
3932003-09-24 07:00PSTYes???USGS45504.01 Unspecified NONE
3922003-09-24 06:56PSTYes???USGS47004.05 Unspecified NONE
3912003-09-24 06:48PSTYes???USGS44804.09 Unspecified NONE
3902003-09-24 06:42PSTYes???USGS47304.12 Unspecified NONE
3892003-09-24 06:35PSTYes???USGS45604.15 Unspecified NONE
3882003-09-24 06:31PSTYes???USGS45704.19 Unspecified NONE
3872003-09-24 06:23PSTYes???USGS44004.23 Unspecified NONE
3862003-09-24 06:16PSTYes???USGS45004.29 Unspecified NONE
3852003-09-24 06:09PSTYes???USGS44804.33 Unspecified NONE
3842003-09-24 06:01PSTYes???USGS44604.38 Unspecified NONE
3832003-09-24 05:57PSTYes???USGS44204.41 Unspecified NONE
3822003-09-24 05:53PSTYes???USGS44004.44 Unspecified NONE
3812003-09-24 05:48PSTYes???USGS42804.47 Unspecified NONE
3802003-09-24 05:44PSTYes???USGS42104.50 Unspecified NONE
3792003-09-24 05:40PSTYes???USGS42404.52 Unspecified NONE
3782003-09-24 05:37PSTYes???USGS43504.54 Unspecified NONE
3772003-09-24 05:32PSTYes???USGS42704.57 Unspecified NONE
3762003-09-24 05:27PSTYes???USGS41104.61 Unspecified NONE
3752003-09-24 05:23PSTYes???USGS41804.63 Unspecified NONE
3742003-09-23 14:06PSTYes???USGS-17503.94 Unspecified NONE
3732003-09-23 14:02PSTYes???USGS-16603.92 Unspecified NONE
3722003-09-23 13:58PSTYes???USGS-17103.90 Unspecified NONE
3712003-09-23 13:52PSTYes???USGS-16903.85 Unspecified NONE
3702003-09-23 13:48PSTYes???USGS-16503.83 Unspecified NONE
3692003-09-23 13:37PSTYes???USGS-15103.76 Unspecified NONE
3682003-09-23 13:26PSTYes???USGS-14903.69 Unspecified NONE
3672003-09-23 13:19PSTYes???USGS-14303.64 Unspecified NONE
3662003-09-23 13:11PSTYes???USGS-13103.60 Unspecified NONE
3652003-09-23 13:05PSTYes???USGS-12203.56 Unspecified NONE
3642003-09-23 12:54PSTYes???USGS-10503.47 Unspecified NONE
3632003-09-23 12:50PSTYes???USGS-9973.46 Unspecified NONE
3622003-09-23 12:47PSTYes???USGS-9023.43 Unspecified NONE
3612003-09-23 12:44PSTYes???USGS-7923.40 Unspecified NONE
3602003-09-23 12:40PSTYes???USGS-7363.38 Unspecified NONE
3592003-09-23 12:37PSTYes???USGS-5563.35 Unspecified NONE
3582003-09-23 12:28PSTYes???USGS-2163.28 Unspecified NONE
3572003-09-23 12:25PSTYes???USGS-26.03.26 Unspecified NONE
3562003-09-23 12:22PSTYes???USGS38.03.23 Unspecified NONE
3552003-09-23 12:19PSTYes???USGS1473.21 Unspecified NONE
3542003-09-23 12:16PSTYes???USGS3073.17 Unspecified NONE
3532003-09-23 12:13PSTYes???USGS4363.15 Unspecified NONE
3522003-09-23 12:10PSTYes???USGS6393.12 Unspecified NONE
3512003-09-23 12:07PSTYes???USGS8383.09 Unspecified NONE
3502003-09-23 12:04PSTYes???USGS9393.06 Unspecified NONE
3492003-09-23 12:01PSTYes???USGS11003.03 Unspecified NONE
3482003-09-23 11:58PSTYes???USGS12403.00 Unspecified NONE
3472003-09-23 11:55PSTYes???USGS13902.97 Unspecified NONE
3462003-09-23 11:52PSTYes???USGS15102.95 Unspecified NONE
3452003-09-23 11:49PSTYes???USGS16102.93 Unspecified NONE
3442003-09-23 11:46PSTYes???USGS17702.90 Unspecified NONE
3432003-09-23 11:43PSTYes???USGS18602.87 Unspecified NONE
3422003-09-23 11:39PSTYes???USGS20002.84 Unspecified NONE
3412003-09-23 11:36PSTYes???USGS20702.82 Unspecified NONE
3402003-09-23 11:33PSTYes???USGS21802.79 Unspecified NONE
3392003-05-14 14:19PSTYes???USGS70905.92 Unspecified NONE
3382003-05-14 14:16PSTYes???USGS70605.91 Unspecified NONE
3372003-05-14 14:13PSTYes???USGS70505.90 Unspecified NONE
3362003-05-14 14:10PSTYes???USGS69205.89 Unspecified NONE
3352003-05-14 14:07PSTYes???USGS70205.87 Unspecified NONE
3342003-05-14 14:04PSTYes???USGS70105.85 Unspecified NONE
3332003-05-14 14:00PSTYes???USGS71305.83 Unspecified NONE
3322003-05-14 13:56PSTYes???USGS69605.81 Unspecified NONE
3312003-05-14 13:54PSTYes???USGS71405.80 Unspecified NONE
3302003-05-14 13:51PSTYes???USGS69805.79 Unspecified NONE
3292003-05-14 13:48PSTYes???USGS70205.78 Unspecified NONE
3282003-05-14 13:45PSTYes???USGS70905.77 Unspecified NONE
3272003-05-14 13:41PSTYes???USGS70005.74 Unspecified NONE
3262003-05-14 13:38PSTYes???USGS71305.72 Unspecified NONE
3252003-05-14 13:35PSTYes???USGS69605.70 Unspecified NONE
3242003-05-14 13:32PSTYes???USGS69405.68 Unspecified NONE
3232003-05-14 13:29PSTYes???USGS70705.66 Unspecified NONE
3222003-05-14 13:09PSTYes???USGS73205.53 Unspecified NONE
3212003-05-14 13:06PSTYes???USGS72605.51 Unspecified NONE
3202003-05-14 13:03PSTYes???USGS74005.49 Unspecified NONE
3192003-05-14 12:59PSTYes???USGS72705.47 Unspecified NONE
3182003-05-14 12:56PSTYes???USGS74305.45 Unspecified NONE
3172003-05-14 12:52PSTYes???USGS74605.43 Unspecified NONE
3162003-05-14 12:49PSTYes???USGS75305.41 Unspecified NONE
3152003-05-14 12:45PSTYes???USGS75305.38 Unspecified NONE
3142003-05-14 12:41PSTYes???USGS76205.36 Unspecified NONE
3132003-05-14 12:37PSTYes???USGS75505.34 Unspecified NONE
3122003-05-14 12:34PSTYes???USGS76505.33 Unspecified NONE
3112003-05-14 12:30PSTYes???USGS78105.31 Unspecified NONE
3102003-05-14 12:25PSTYes???USGS77205.30 Unspecified NONE
3092003-05-13 15:27PSTYes???USGS87606.37 Unspecified NONE
3082003-05-13 15:23PSTYes???USGS89006.37 Unspecified NONE
3072003-05-13 15:19PSTYes???USGS87306.38 Unspecified NONE
3062003-05-13 15:15PSTYes???USGS88806.38 Unspecified NONE
3052003-05-13 15:11PSTYes???USGS86406.39 Unspecified NONE
3042003-05-13 15:07PSTYes???USGS86406.39 Unspecified NONE
3032003-05-13 15:03PSTYes???USGS86406.39 Unspecified NONE
3022003-05-13 15:00PSTYes???USGS89006.39 Unspecified NONE
3012003-05-13 14:55PSTYes???USGS84806.39 Unspecified NONE
3002003-05-13 14:51PSTYes???USGS87906.38 Unspecified NONE
2992003-05-13 14:46PSTYes???USGS84906.38 Unspecified NONE
2982003-05-13 14:23PSTYes???USGS86206.34 Unspecified NONE
2972003-05-13 14:19PSTYes???USGS81706.34 Unspecified NONE
2962003-05-13 14:15PSTYes???USGS83706.34 Unspecified NONE
2952003-05-13 14:12PSTYes???USGS82306.33 Unspecified NONE
2942003-05-13 14:07PSTYes???USGS86606.32 Unspecified NONE
2932003-05-13 14:03PSTYes???USGS82506.32 Unspecified NONE
2922003-05-13 13:59PSTYes???USGS82606.31 Unspecified NONE
2912003-05-13 13:55PSTYes???USGS83806.29 Unspecified NONE
2902003-05-13 13:50PSTYes???USGS84206.25 Unspecified NONE
2892003-05-13 13:46PSTYes???USGS83906.23 Unspecified NONE
2882003-05-13 13:42PSTYes???USGS84206.21 Unspecified NONE
2872003-05-13 13:38PSTYes???USGS85106.20 Unspecified NONE
2862003-05-13 13:34PSTYes???USGS83706.19 Unspecified NONE
2852003-05-13 13:29PSTYes???USGS84206.17 Unspecified NONE
2842003-02-06 11:49PSTYes???USGS69305.01 Unspecified NONE
2832003-02-06 11:44PSTYes???USGS69605.03 Unspecified NONE
2822003-02-06 11:38PSTYes???USGS71405.06 Unspecified NONE
2812003-02-06 11:34PSTYes???USGS68805.08 Unspecified NONE
2802003-02-06 11:29PSTYes???USGS69805.09 Unspecified NONE
2792003-02-06 11:04PSTYes???USGS68405.19 Unspecified NONE
2782003-02-06 10:59PSTYes???USGS69405.21 Unspecified NONE
2772003-02-06 10:54PSTYes???USGS68205.23 Unspecified NONE
2762003-02-06 10:49PSTYes???USGS69605.22 Unspecified NONE
2752003-02-06 10:38PSTYes???USGS65905.28 Unspecified NONE
2742003-02-06 10:28PSTYes???USGS65405.32 Unspecified NONE
2732003-02-06 10:23PSTYes???USGS64905.33 Unspecified NONE
2722003-02-06 10:09PSTYes???USGS65605.38 Unspecified NONE
2712003-02-06 10:04PSTYes???USGS64005.38 Unspecified NONE
2702003-02-06 09:59PSTYes???USGS64805.40 Unspecified NONE
2692003-02-06 09:54PSTYes???USGS63605.41 Unspecified NONE
2682003-02-06 09:49PSTYes???USGS62105.43 Unspecified NONE
2672003-02-06 09:43PSTYes???USGS61905.45 Unspecified NONE
2662003-02-06 09:37PSTYes???USGS62305.46 Unspecified NONE
2652003-02-06 09:29PSTYes???USGS62805.47 Unspecified NONE
2642002-07-31 14:07PSTYes???USGS44302.97 Unspecified NONE
2632002-07-31 14:03PSTYes???USGS45102.99 Unspecified NONE
2622002-07-31 13:58PSTYes???USGS43803.00 Unspecified NONE
2612002-07-31 13:55PSTYes???USGS44703.02 Unspecified NONE
2602002-07-31 13:52PSTYes???USGS44003.04 Unspecified NONE
2592002-07-31 13:49PSTYes???USGS43503.05 Unspecified NONE
2582002-07-31 13:46PSTYes???USGS44303.06 Unspecified NONE
2572002-07-31 13:43PSTYes???USGS45403.08 Unspecified NONE
2562002-07-31 13:40PSTYes???USGS42903.09 Unspecified NONE
2552002-07-31 13:37PSTYes???USGS43303.10 Unspecified NONE
2542002-07-31 13:00PSTYes???USGS43403.26 Unspecified NONE
2532002-07-31 12:56PSTYes???USGS43103.28 Unspecified NONE
2522002-07-31 12:53PSTYes???USGS42803.30 Unspecified NONE
2512002-07-31 12:49PSTYes???USGS43803.32 Unspecified NONE
2502002-07-31 12:45PSTYes???USGS42403.34 Unspecified NONE
2492002-07-31 12:40PSTYes???USGS42803.36 Unspecified NONE
2482002-07-31 12:28PSTYes???USGS43803.42 Unspecified NONE
2472002-07-31 12:24PSTYes???USGS41603.43 Unspecified NONE
2462002-07-31 12:20PSTYes???USGS42003.45 Unspecified NONE
2452002-07-31 12:16PSTYes???USGS41803.46 Unspecified NONE
2442002-07-31 12:12PSTYes???USGS42303.48 Unspecified NONE
2432002-07-31 12:08PSTYes???USGS41103.50 Unspecified NONE
2422002-07-31 12:04PSTYes???USGS41503.52 Unspecified NONE
2412002-07-31 12:00PSTYes???USGS39203.54 Unspecified NONE
2402002-07-31 11:55PSTYes???USGS40803.56 Unspecified NONE
2392002-07-31 11:51PSTYes???USGS40703.58 Unspecified NONE
2382002-07-31 11:46PSTYes???USGS39203.60 Unspecified NONE
2372002-07-31 11:42PSTYes???USGS39103.61 Unspecified NONE
2362002-07-31 11:38PSTYes???USGS39703.62 Unspecified NONE
2352002-07-31 11:34PSTYes???USGS38603.63 Unspecified NONE
2342002-07-31 11:29PSTYes???USGS37603.65 Unspecified NONE
2332002-07-31 11:25PSTYes???USGS38403.66 Unspecified NONE
2322002-07-31 11:14PSTYes???USGS38003.71 Unspecified NONE
2312002-07-31 11:10PSTYes???USGS37003.72 Unspecified NONE
2302002-07-31 11:05PSTYes???USGS36903.73 Unspecified NONE
2292002-07-31 11:01PSTYes???USGS36603.75 Unspecified NONE
2282002-07-31 10:56PSTYes???USGS37103.76 Unspecified NONE
2272002-07-31 10:51PSTYes???USGS35503.78 Unspecified NONE
2262002-07-31 10:46PSTYes???USGS36303.80 Unspecified NONE
2252002-07-31 10:40PSTYes???USGS34603.82 Unspecified NONE
2242002-07-31 10:35PSTYes???USGS34203.83 Unspecified NONE
2232002-07-31 10:30PSTYes???USGS33503.84 Unspecified NONE
2222002-07-31 10:26PSTYes???USGS33603.85 Unspecified NONE
2212002-07-31 10:22PSTYes???USGS32503.87 Unspecified NONE
2202002-07-31 10:18PSTYes???USGS32003.88 Unspecified NONE
2192002-07-31 10:14PSTYes???USGS32203.89 Unspecified NONE
2182002-07-31 10:11PSTYes???USGS31803.89 Unspecified NONE
2172002-07-31 10:07PSTYes???USGS30403.90 Unspecified NONE
2162002-07-31 10:04PSTYes???USGS31003.90 Unspecified NONE
2152002-07-31 10:00PSTYes???USGS30103.91 Unspecified NONE
2142002-07-31 09:56PSTYes???USGS30203.91 Unspecified NONE
2132002-07-31 09:53PSTYes???USGS29903.91 Unspecified NONE
2122002-07-31 09:49PSTYes???USGS30703.92 Unspecified NONE
2112002-07-31 09:45PSTYes???USGS27703.92 Unspecified NONE
2102002-07-31 09:42PSTYes???USGS28303.92 Unspecified NONE
2092002-07-31 09:05PSTYes???USGS22803.94 Unspecified NONE
2082002-07-31 09:02PSTYes???USGS23903.93 Unspecified NONE
2072002-07-31 08:50PSTYes???USGS20603.92 Unspecified NONE
2062002-07-31 08:48PSTYes???USGS20503.92 Unspecified NONE
2052002-07-31 08:44PSTYes???USGS20903.92 Unspecified NONE
2042002-07-31 08:41PSTYes???USGS20903.91 Unspecified NONE
2032002-07-31 08:38PSTYes???USGS20503.90 Unspecified NONE
2022002-07-31 08:34PSTYes???USGS19903.89 Unspecified NONE
2012002-07-31 08:31PSTYes???USGS19403.88 Unspecified NONE
2002002-07-31 08:28PSTYes???USGS19603.87 Unspecified NONE
1992002-07-31 08:25PSTYes???USGS18903.86 Unspecified NONE
1982002-07-31 08:22PSTYes???USGS19903.85 Unspecified NONE
1972002-07-31 08:19PSTYes???USGS19103.84 Unspecified NONE
1962002-07-31 08:16PSTYes???USGS18703.82 Unspecified NONE
1952002-07-31 08:13PSTYes???USGS18403.81 Unspecified NONE
1942002-07-31 08:10PSTYes???USGS19003.80 Unspecified NONE
1932002-07-31 08:07PSTYes???USGS17903.79 Unspecified NONE
1922002-07-31 08:04PSTYes???USGS19203.78 Unspecified NONE
1912002-07-31 08:01PSTYes???USGS18103.77 Unspecified NONE
1902002-07-31 07:58PSTYes???USGS17903.76 Unspecified NONE
1892002-07-31 07:55PSTYes???USGS18303.75 Unspecified NONE
1882002-07-31 07:51PSTYes???USGS18103.74 Unspecified NONE
1872002-07-31 07:48PSTYes???USGS17503.73 Unspecified NONE
1862002-07-31 07:45PSTYes???USGS18403.72 Unspecified NONE
1852002-07-31 07:42PSTYes???USGS18303.71 Unspecified NONE
1842002-07-31 07:38PSTYes???USGS18603.70 Unspecified NONE
1832002-07-31 07:35PSTYes???USGS18503.69 Unspecified NONE
1822002-07-31 07:32PSTYes???USGS18903.67 Unspecified NONE
1812002-07-31 07:29PSTYes???USGS18603.66 Unspecified NONE
1802002-07-31 07:25PSTYes???USGS19703.64 Unspecified NONE
1792002-07-31 07:22PSTYes???USGS19703.62 Unspecified NONE
1782002-07-31 07:16PSTYes???USGS19703.59 Unspecified NONE
1772002-07-31 06:59PSTYes???USGS23203.53 Unspecified NONE
1762002-07-31 06:56PSTYes???USGS22603.51 Unspecified NONE
1752002-07-31 06:53PSTYes???USGS23803.49 Unspecified NONE
1742002-07-31 06:49PSTYes???USGS24503.47 Unspecified NONE
1732002-07-31 06:46PSTYes???USGS24903.45 Unspecified NONE
1722002-07-31 06:42PSTYes???USGS26003.43 Unspecified NONE
1712001-09-18 19:26PSTYes???USGS28404.45 Unspecified NONE
1702001-09-18 19:23PSTYes???USGS26604.47 Unspecified NONE
1692001-09-18 19:20PSTYes???USGS26904.49 Unspecified NONE
1682001-09-18 19:17PSTYes???USGS24804.50 Unspecified NONE
1672001-09-18 19:14PSTYes???USGS23604.52 Unspecified NONE
1662001-09-18 19:10PSTYes???USGS21904.54 Unspecified NONE
1652001-09-18 19:06PSTYes???USGS20904.56 Unspecified NONE
1642001-09-18 19:02PSTYes???USGS17604.58 Unspecified NONE
1632001-09-18 18:58PSTYes???USGS15004.61 Unspecified NONE
1622001-09-18 18:54PSTYes???USGS11304.63 Unspecified NONE
1612001-09-18 18:50PSTYes???USGS8314.65 Unspecified NONE
1602001-09-18 18:46PSTYes???USGS5434.66 Unspecified NONE
1592001-09-18 18:41PSTYes???USGS1914.68 Unspecified NONE
1582001-09-18 18:36PSTYes???USGS-2194.70 Unspecified NONE
1572001-09-18 18:31PSTYes???USGS-5074.73 Unspecified NONE
1562001-09-18 18:25PSTYes???USGS-8124.75 Unspecified NONE
1552001-09-18 18:19PSTYes???USGS-11604.77 Unspecified NONE
1542001-09-18 18:14PSTYes???USGS-13404.78 Unspecified NONE
1532001-09-18 18:08PSTYes???USGS-15504.78 Unspecified NONE
1522001-09-18 18:05PSTYes???USGS-17204.78 Unspecified NONE
1512001-09-18 18:01PSTYes???USGS-18904.78 Unspecified NONE
1502001-09-18 17:57PSTYes???USGS-19604.78 Unspecified NONE
1492001-09-18 17:54PSTYes???USGS-20404.77 Unspecified NONE
1482001-09-18 17:50PSTYes???USGS-21304.76 Unspecified NONE
1472001-09-18 17:46PSTYes???USGS-21904.75 Unspecified NONE
1462001-09-18 17:42PSTYes???USGS-22404.73 Unspecified NONE
1452001-09-18 17:38PSTYes???USGS-23404.72 Unspecified NONE
1442001-09-18 17:34PSTYes???USGS-23504.70 Unspecified NONE
1432001-09-18 17:30PSTYes???USGS-23704.67 Unspecified NONE
1422001-09-18 17:26PSTYes???USGS-24604.65 Unspecified NONE
1412001-09-18 17:22PSTYes???USGS-24804.63 Unspecified NONE
1402001-09-18 17:18PSTYes???USGS-24204.61 Unspecified NONE
1392001-09-18 17:14PSTYes???USGS-24904.59 Unspecified NONE
1382001-09-18 17:11PSTYes???USGS-25104.57 Unspecified NONE
1372001-09-18 17:07PSTYes???USGS-25004.56 Unspecified NONE
1362001-09-18 17:04PSTYes???USGS-25104.54 Unspecified NONE
1352001-09-18 17:00PSTYes???USGS-24904.52 Unspecified NONE
1342001-09-18 16:57PSTYes???USGS-25504.50 Unspecified NONE
1332001-09-18 16:53PSTYes???USGS-26604.48 Unspecified NONE
1322001-09-18 16:49PSTYes???USGS-27304.46 Unspecified NONE
1312001-09-18 16:46PSTYes???USGS-26804.43 Unspecified NONE
1302001-09-18 16:42PSTYes???USGS-26404.41 Unspecified NONE
1292001-09-18 16:38PSTYes???USGS-26504.38 Unspecified NONE
1282001-09-18 16:34PSTYes???USGS-26004.35 Unspecified NONE
1272001-09-18 16:30PSTYes???USGS-27004.33 Unspecified NONE
1262001-09-18 16:26PSTYes???USGS-26604.29 Unspecified NONE
1252001-09-18 16:21PSTYes???USGS-27004.25 Unspecified NONE
1242001-09-18 16:17PSTYes???USGS-26004.22 Unspecified NONE
1232001-09-18 16:13PSTYes???USGS-26204.19 Unspecified NONE
1222001-09-18 16:09PSTYes???USGS-26804.16 Unspecified NONE
1212001-09-18 16:05PSTYes???USGS-25404.12 Unspecified NONE
1202001-09-18 16:01PSTYes???USGS-26304.10 Unspecified NONE
1192001-09-18 15:49PSTYes???USGS-25104.01 Unspecified NONE
1182001-09-18 15:45PSTYes???USGS-24603.99 Unspecified NONE
1172001-09-18 15:41PSTYes???USGS-23903.95 Unspecified NONE
1162001-09-18 15:37PSTYes???USGS-23803.92 Unspecified NONE
1152001-09-18 15:34PSTYes???USGS-23803.89 Unspecified NONE
1142001-09-18 15:30PSTYes???USGS-24103.86 Unspecified NONE
1132001-09-18 15:27PSTYes???USGS-23703.85 Unspecified NONE
1122001-09-18 15:24PSTYes???USGS-25003.83 Unspecified NONE
1112001-09-18 15:20PSTYes???USGS-24503.81 Unspecified NONE
1102001-09-18 15:16PSTYes???USGS-24203.78 Unspecified NONE
1092001-09-18 15:12PSTYes???USGS-22803.76 Unspecified NONE
1082001-09-18 15:08PSTYes???USGS-22503.73 Unspecified NONE
1072001-09-18 15:04PSTYes???USGS-22303.70 Unspecified NONE
1062001-09-18 15:00PSTYes???USGS-22303.66 Unspecified NONE
1052001-09-18 14:57PSTYes???USGS-21003.63 Unspecified NONE
1042001-09-18 14:53PSTYes???USGS-21403.60 Unspecified NONE
1032001-09-18 14:48PSTYes???USGS-20503.56 Unspecified NONE
1022001-09-18 14:45PSTYes???USGS-19603.52 Unspecified NONE
1012001-09-18 14:39PSTYes???USGS-17403.47 Unspecified NONE
1002001-09-18 14:34PSTYes???USGS-16403.43 Unspecified NONE
992001-09-18 14:30PSTYes???USGS-13503.40 Unspecified NONE
982001-09-18 14:27PSTYes???USGS-13203.36 Unspecified NONE
972001-09-18 14:22PSTYes???USGS-9753.33 Unspecified NONE
962001-09-18 14:18PSTYes???USGS-7593.29 Unspecified NONE
952001-09-18 14:14PSTYes???USGS-3903.25 Unspecified NONE
942001-09-18 14:09PSTYes???USGS-1813.21 Unspecified NONE
932001-09-18 14:05PSTYes???USGS1873.16 Unspecified NONE
922001-09-18 14:01PSTYes???USGS3743.12 Unspecified NONE
912001-09-18 13:57PSTYes???USGS5223.08 Unspecified NONE
902001-09-18 13:45PSTYes???USGS11902.96 Unspecified NONE
892001-09-18 13:41PSTYes???USGS14102.92 Unspecified NONE
882001-09-18 13:37PSTYes???USGS15002.89 Unspecified NONE
872001-09-18 13:32PSTYes???USGS17002.85 Unspecified NONE
862001-09-18 13:28PSTYes???USGS17902.82 Unspecified NONE
852001-09-18 13:13PSTYes???USGS25402.71 Unspecified NONE
842001-09-18 13:06PSTYes???USGS26902.65 Unspecified NONE
832001-09-18 13:01PSTYes???USGS30902.61 Unspecified NONE
822001-09-18 12:56PSTYes???USGS31402.57 Unspecified NONE
812001-09-18 12:51PSTYes???USGS33602.54 Unspecified NONE
802001-09-18 12:45PSTYes???USGS35002.51 Unspecified NONE
792001-09-18 12:41PSTYes???USGS35802.50 Unspecified NONE
782001-09-18 12:36PSTYes???USGS37302.50 Unspecified NONE
772001-09-18 12:31PSTYes???USGS37802.50 Unspecified NONE
762001-09-18 12:26PSTYes???USGS38102.50 Unspecified NONE
752001-09-18 12:21PSTYes???USGS38702.51 Unspecified NONE
742001-09-18 12:15PSTYes???USGS42202.52 Unspecified NONE
732001-09-18 12:10PSTYes???USGS39402.55 Unspecified NONE
722001-09-18 12:04PSTYes???USGS40102.56 Unspecified NONE
712001-09-18 11:59PSTYes???USGS39402.59 Unspecified NONE
702001-09-18 11:54PSTYes???USGS42202.61 Unspecified NONE
692001-09-18 11:48PSTYes???USGS41402.64 Unspecified NONE
682001-09-18 11:43PSTYes???USGS41302.67 Unspecified NONE
672001-09-18 11:39PSTYes???USGS41302.69 Unspecified NONE
662001-09-18 11:34PSTYes???USGS41602.72 Unspecified NONE
652001-09-18 11:28PSTYes???USGS41602.75 Unspecified NONE
642001-09-18 11:23PSTYes???USGS40302.77 Unspecified NONE
632001-09-18 11:19PSTYes???USGS41402.79 Unspecified NONE
622001-09-18 11:13PSTYes???USGS40602.82 Unspecified NONE
612001-09-18 11:06PSTYes???USGS41202.87 Unspecified NONE
602001-09-18 11:02PSTYes???USGS42602.90 Unspecified NONE
592001-09-18 10:56PSTYes???USGS40102.94 Unspecified NONE
582001-09-18 10:51PSTYes???USGS41502.98 Unspecified NONE
572001-09-18 10:45PSTYes???USGS43003.02 Unspecified NONE
562001-09-18 10:39PSTYes???USGS41803.05 Unspecified NONE
552001-09-18 10:33PSTYes???USGS42603.09 Unspecified NONE
542001-09-18 10:27PSTYes???USGS42603.13 Unspecified NONE
532001-09-18 10:21PSTYes???USGS43503.17 Unspecified NONE
522001-09-18 10:15PSTYes???USGS44003.20 Unspecified NONE
512001-09-18 10:09PSTYes???USGS43103.24 Unspecified NONE
502001-09-18 10:03PSTYes???USGS42103.28 Unspecified NONE
492001-09-18 09:57PSTYes???USGS42803.32 Unspecified NONE
482001-09-18 09:52PSTYes???USGS42403.35 Unspecified NONE
472001-09-18 09:47PSTYes???USGS42303.38 Unspecified NONE
462001-09-18 09:42PSTYes???USGS44303.42 Unspecified NONE
452001-09-18 09:37PSTYes???USGS42003.45 Unspecified NONE
442001-09-18 09:32PSTYes???USGS43703.49 Unspecified NONE
432001-09-18 09:19PSTYes???USGS42603.57 Unspecified NONE
422001-09-18 09:15PSTYes???USGS44603.60 Unspecified NONE
412001-09-18 09:11PSTYes???USGS43503.62 Unspecified NONE
402001-09-18 09:07PSTYes???USGS43603.65 Unspecified NONE
392001-09-18 09:03PSTYes???USGS43303.67 Unspecified NONE
382001-09-18 08:58PSTYes???USGS43003.71 Unspecified NONE
372001-09-18 08:53PSTYes???USGS42603.74 Unspecified NONE
362001-09-18 08:48PSTYes???USGS43603.77 Unspecified NONE
352001-09-18 08:44PSTYes???USGS42503.80 Unspecified NONE
342001-09-18 08:39PSTYes???USGS43403.82 Unspecified NONE
332001-09-18 08:35PSTYes???USGS44003.85 Unspecified NONE
322001-09-18 08:32PSTYes???USGS41803.87 Unspecified NONE
312001-09-18 08:29PSTYes???USGS43603.89 Unspecified NONE
302001-09-18 08:25PSTYes???USGS42303.91 Unspecified NONE
292001-09-18 08:21PSTYes???USGS42903.94 Unspecified NONE
282001-09-18 08:17PSTYes???USGS40303.96 Unspecified NONE
272001-09-18 08:14PSTYes???USGS43003.98 Unspecified NONE
262001-09-18 08:10PSTYes???USGS42504.00 Unspecified NONE
252001-09-18 08:07PSTYes???USGS42604.02 Unspecified NONE
242001-09-18 08:03PSTYes???USGS42704.05 Unspecified NONE
232001-09-18 08:00PSTYes???USGS42004.07 Unspecified NONE
222001-09-18 07:56PSTYes???USGS41204.10 Unspecified NONE
212001-09-18 07:53PSTYes???USGS41404.12 Unspecified NONE
202001-09-18 07:49PSTYes???USGS41504.14 Unspecified NONE
192001-09-18 07:45PSTYes???USGS40404.17 Unspecified NONE
182001-09-18 07:42PSTYes???USGS41504.19 Unspecified NONE
172001-09-18 07:38PSTYes???USGS38804.21 Unspecified NONE
162001-09-18 07:34PSTYes???USGS40804.24 Unspecified NONE
152001-09-18 07:30PSTYes???USGS38604.26 Unspecified NONE
142001-09-18 07:26PSTYes???USGS38404.29 Unspecified NONE
132001-09-18 07:23PSTYes???USGS37504.31 Unspecified NONE
122001-09-18 07:19PSTYes???USGS37504.34 Unspecified NONE
112001-09-18 07:15PSTYes???USGS36304.37 Unspecified NONE
102001-09-18 07:11PSTYes???USGS35504.39 Unspecified NONE
92001-09-18 07:08PSTYes???USGS34604.41 Unspecified NONE
82001-09-18 07:01PSTYes???USGS33704.46 Unspecified NONE
72001-09-18 06:58PSTYes???USGS33804.48 Unspecified NONE
62001-09-18 06:54PSTYes???USGS32804.50 Unspecified NONE
52001-09-18 06:51PSTYes???USGS32004.52 Unspecified NONE
42001-09-18 06:48PSTYes???USGS32404.54 Unspecified NONE
32001-09-18 06:45PSTYes???USGS29304.55 Unspecified NONE
22001-09-18 06:42PSTYes???USGS29904.57 Unspecified NONE
12001-09-18 06:39PSTYes???USGS29804.58 Unspecified NONE